Darstellungsparameter: Aktuell verwendete Einstellungen:
Skalierung der Graphiken ... ?
xyx+y,   Skalierungsfaktor:      Skalierung: Modus: x, Faktor: 1
Darstellungszeitraum ... ?
Vom - - bis: - -   Zeitraum: 14.08.2018 - 18.08.2018
Min/Max/Avg-Anzeige ... ?
Zeige MMA aktuell
Zeige MMA Monat
Zeige MMA alles
Zeige --A aktuell
Zeige --A Monat
Zeige --A alles
Keine MMA-Anzeige
MMA:
Keine MMA-Graphiken
MMA-Basis: 14.08.2018 - 18.08.2018
Quicknavigation für Darstellung... ?
Tage:      1T, 2T, 3T, 5T -1T -2T -3T -5T +1T +2T +3T +5T
Wochen: 1W, 2W, 3W -1W -2W -3W +1W +2W +3W
Monate: 1M, 3M, 6M -1M -3M -6M +1M +3M +6M
Jahre:    1J, 3J, 5J, 10J -1J -3J -5J -10J +1J +3J +5J +10J
Nutze für die Darstellung ... ?
Originaldaten oder Mittelwerte auf ...
Stundenbasis Tagesbasis Wochenbasis
Monatsbasis Jahresbasis      Datenbasis: Original-Daten
Darstellen als:
Statistik (Auto) Statistik J:M      Darstellung:
Zur Graphik,    zurück zur Übersicht aller Sensoren.
 
Tabellarische Datenbersicht: ?
 
Sensor: Nr:Datum:Temp:Feuchte:Taupunkt:
Aussen-T/F 1 14-08-2018 00:00:00 15.8 C 92 % 14.5 C
2 14-08-2018 00:05:00 15.8 C 93 % 14.67 C
3 14-08-2018 00:10:00 15.8 C 93 % 14.67 C
4 14-08-2018 00:15:00 15.8 C 93 % 14.67 C
5 14-08-2018 00:20:00 15.9 C 93 % 14.77 C
6 14-08-2018 00:25:00 15.9 C 93 % 14.77 C
7 14-08-2018 00:30:00 15.9 C 93 % 14.77 C
8 14-08-2018 00:35:00 15.9 C 93 % 14.77 C
9 14-08-2018 00:40:00 15.9 C 93 % 14.77 C
10 14-08-2018 00:45:00 16 C 93 % 14.87 C
11 14-08-2018 00:50:00 16 C 93 % 14.87 C
12 14-08-2018 00:55:00 16 C 93 % 14.87 C
13 14-08-2018 01:00:00 15.9 C 93 % 14.77 C
14 14-08-2018 01:05:00 15.9 C 93 % 14.77 C
15 14-08-2018 01:10:00 15.9 C 93 % 14.77 C
16 14-08-2018 01:15:00 15.9 C 93 % 14.77 C
17 14-08-2018 01:20:00 16 C 94 % 15.03 C
18 14-08-2018 01:25:00 16.1 C 94 % 15.13 C
19 14-08-2018 01:30:00 16.1 C 94 % 15.13 C
20 14-08-2018 01:35:00 16.2 C 94 % 15.23 C
21 14-08-2018 01:40:00 16.2 C 94 % 15.23 C
22 14-08-2018 01:45:00 16.2 C 94 % 15.23 C
23 14-08-2018 01:50:00 16.3 C 94 % 15.33 C
24 14-08-2018 01:55:00 16.3 C 94 % 15.33 C
25 14-08-2018 02:00:00 16.3 C 94 % 15.33 C
Sensor: Nr:Datum:Temp:Feuchte:Taupunkt:
Aussen-T/F 26 14-08-2018 02:05:00 16.3 C 94 % 15.33 C
27 14-08-2018 02:10:00 16.3 C 94 % 15.33 C
28 14-08-2018 02:15:00 16.3 C 93 % 15.17 C
29 14-08-2018 02:20:00 16.3 C 93 % 15.17 C
30 14-08-2018 02:25:00 16.2 C 93 % 15.07 C
31 14-08-2018 02:30:00 16.2 C 93 % 15.07 C
32 14-08-2018 02:35:00 16.1 C 93 % 14.97 C
33 14-08-2018 02:40:00 16.1 C 93 % 14.97 C
34 14-08-2018 02:45:00 16 C 93 % 14.87 C
35 14-08-2018 02:50:00 16 C 93 % 14.87 C
36 14-08-2018 02:55:00 16.1 C 93 % 14.97 C
37 14-08-2018 03:00:00 16.1 C 93 % 14.97 C
38 14-08-2018 03:05:00 16.1 C 93 % 14.97 C
39 14-08-2018 03:10:00 16.1 C 93 % 14.97 C
40 14-08-2018 03:15:00 16.1 C 93 % 14.97 C
41 14-08-2018 03:20:00 16.2 C 93 % 15.07 C
42 14-08-2018 03:25:00 16.2 C 93 % 15.07 C
43 14-08-2018 03:30:00 16.2 C 93 % 15.07 C
44 14-08-2018 03:35:00 16.2 C 93 % 15.07 C
45 14-08-2018 03:40:00 16.2 C 93 % 15.07 C
46 14-08-2018 03:45:00 16.3 C 93 % 15.17 C
47 14-08-2018 03:50:00 16.3 C 93 % 15.17 C
48 14-08-2018 03:55:00 16.3 C 93 % 15.17 C
49 14-08-2018 04:00:00 16.3 C 93 % 15.17 C
50 14-08-2018 04:05:00 16.3 C 93 % 15.17 C
Sensor: Nr:Datum:Temp:Feuchte:Taupunkt:
Aussen-T/F 51 14-08-2018 04:10:00 16.2 C 93 % 15.07 C
52 14-08-2018 04:15:00 16.2 C 93 % 15.07 C
53 14-08-2018 04:20:00 16.2 C 93 % 15.07 C
54 14-08-2018 04:25:00 16.2 C 93 % 15.07 C
55 14-08-2018 04:30:00 16.2 C 93 % 15.07 C
56 14-08-2018 04:35:00 16.2 C 93 % 15.07 C
57 14-08-2018 04:40:00 16.1 C 92 % 14.8 C
58 14-08-2018 04:45:00 16.1 C 92 % 14.8 C
59 14-08-2018 04:50:00 16.1 C 92 % 14.8 C
60 14-08-2018 04:55:00 16.1 C 92 % 14.8 C
61 14-08-2018 05:00:00 16.1 C 92 % 14.8 C
62 14-08-2018 05:05:00 16.1 C 92 % 14.8 C
63 14-08-2018 05:10:00 16.1 C 92 % 14.8 C
64 14-08-2018 05:15:00 16 C 92 % 14.7 C
65 14-08-2018 05:20:00 15.9 C 92 % 14.6 C
66 14-08-2018 05:25:00 15.9 C 91 % 14.43 C
67 14-08-2018 05:30:00 15.9 C 91 % 14.43 C
68 14-08-2018 05:35:00 15.9 C 91 % 14.43 C
69 14-08-2018 05:40:00 15.9 C 91 % 14.43 C
70 14-08-2018 05:45:00 16 C 91 % 14.53 C
71 14-08-2018 05:50:00 16.1 C 91 % 14.63 C
72 14-08-2018 05:55:00 16.1 C 91 % 14.63 C
73 14-08-2018 06:00:00 16.2 C 90 % 14.56 C
74 14-08-2018 06:05:00 16.2 C 90 % 14.56 C
75 14-08-2018 06:10:00 16.3 C 90 % 14.66 C
Sensor: Nr:Datum:Temp:Feuchte:Taupunkt:
Aussen-T/F 76 14-08-2018 06:15:00 16.3 C 89 % 14.48 C
77 14-08-2018 06:20:00 16.4 C 89 % 14.58 C
78 14-08-2018 06:25:00 16.4 C 89 % 14.58 C
79 14-08-2018 06:30:00 16.4 C 89 % 14.58 C
80 14-08-2018 06:35:00 16.5 C 89 % 14.68 C
81 14-08-2018 06:40:00 16.6 C 88 % 14.6 C
82 14-08-2018 06:45:00 16.6 C 88 % 14.6 C
83 14-08-2018 06:50:00 16.7 C 88 % 14.7 C
84 14-08-2018 06:55:00 16.7 C 88 % 14.7 C
85 14-08-2018 07:00:00 16.7 C 88 % 14.7 C
86 14-08-2018 07:05:00 16.8 C 88 % 14.8 C
87 14-08-2018 07:10:00 16.8 C 88 % 14.8 C
88 14-08-2018 07:15:00 16.8 C 88 % 14.8 C
89 14-08-2018 07:20:00 16.8 C 88 % 14.8 C
90 14-08-2018 07:25:00 16.9 C 88 % 14.9 C
91 14-08-2018 07:30:00 16.9 C 88 % 14.9 C
92 14-08-2018 07:35:00 17 C 88 % 15 C
93 14-08-2018 07:40:00 16.9 C 88 % 14.9 C
94 14-08-2018 07:45:00 16.9 C 87 % 14.72 C
95 14-08-2018 07:50:00 17 C 87 % 14.82 C
96 14-08-2018 07:55:00 17.1 C 87 % 14.92 C
97 14-08-2018 08:00:00 17.2 C 87 % 15.02 C
98 14-08-2018 08:05:00 17.3 C 86 % 14.94 C
99 14-08-2018 08:10:00 17.5 C 86 % 15.13 C
100 14-08-2018 08:15:00 17.6 C 85 % 15.05 C
Sensor: Nr:Datum:Temp:Feuchte:Taupunkt:
Aussen-T/F 101 14-08-2018 08:20:00 17.7 C 85 % 15.15 C
102 14-08-2018 08:25:00 17.8 C 85 % 15.25 C
103 14-08-2018 08:30:00 17.8 C 85 % 15.25 C
104 14-08-2018 08:35:00 17.8 C 85 % 15.25 C
105 14-08-2018 08:40:00 17.9 C 85 % 15.34 C
106 14-08-2018 08:45:00 17.9 C 84 % 15.16 C
107 14-08-2018 08:50:00 17.9 C 84 % 15.16 C
108 14-08-2018 08:55:00 18 C 84 % 15.26 C
109 14-08-2018 09:00:00 18.1 C 83 % 15.17 C
110 14-08-2018 09:05:00 18.1 C 83 % 15.17 C
111 14-08-2018 09:10:00 18.2 C 83 % 15.27 C
112 14-08-2018 09:15:00 18.2 C 83 % 15.27 C
113 14-08-2018 09:20:00 18.3 C 83 % 15.36 C
114 14-08-2018 09:25:00 18.4 C 83 % 15.46 C
115 14-08-2018 09:30:00 18.5 C 82 % 15.37 C
116 14-08-2018 09:35:00 18.6 C 82 % 15.47 C
117 14-08-2018 09:40:00 18.8 C 83 % 15.85 C
118 14-08-2018 09:45:00 18.8 C 82 % 15.66 C
119 14-08-2018 09:50:00 18.8 C 82 % 15.66 C
120 14-08-2018 09:55:00 18.9 C 82 % 15.76 C
121 14-08-2018 10:00:00 18.9 C 81 % 15.57 C
122 14-08-2018 10:05:00 18.9 C 82 % 15.76 C
123 14-08-2018 10:10:00 18.9 C 81 % 15.57 C
124 14-08-2018 10:15:00 18.8 C 81 % 15.47 C
125 14-08-2018 10:20:00 18.8 C 82 % 15.66 C
Sensor: Nr:Datum:Temp:Feuchte:Taupunkt:
Aussen-T/F 126 14-08-2018 10:25:00 18.8 C 82 % 15.66 C
127 14-08-2018 10:30:00 18.7 C 82 % 15.57 C
128 14-08-2018 10:35:00 18.7 C 82 % 15.57 C
129 14-08-2018 10:40:00 18.8 C 82 % 15.66 C
130 14-08-2018 10:45:00 18.8 C 83 % 15.85 C
131 14-08-2018 10:50:00 18.9 C 82 % 15.76 C
132 14-08-2018 10:55:00 19.2 C 82 % 16.05 C
133 14-08-2018 11:00:00 19.4 C 81 % 16.06 C
134 14-08-2018 11:05:00 19.6 C 81 % 16.25 C
135 14-08-2018 11:10:00 19.8 C 80 % 16.25 C
136 14-08-2018 11:15:00 19.9 C 81 % 16.54 C
137 14-08-2018 11:20:00 20.1 C 80 % 16.54 C
138 14-08-2018 11:25:00 20.1 C 79 % 16.34 C
139 14-08-2018 11:30:00 20 C 79 % 16.25 C
140 14-08-2018 11:35:00 20 C 80 % 16.44 C
141 14-08-2018 11:40:00 20.1 C 80 % 16.54 C
142 14-08-2018 11:45:00 20.2 C 79 % 16.44 C
143 14-08-2018 11:50:00 20.2 C 79 % 16.44 C
144 14-08-2018 11:55:00 20.2 C 80 % 16.64 C
145 14-08-2018 12:00:00 20.3 C 79 % 16.54 C
146 14-08-2018 12:05:00 20.3 C 79 % 16.54 C
147 14-08-2018 12:10:00 20.3 C 80 % 16.74 C
148 14-08-2018 12:15:00 20.4 C 79 % 16.64 C
149 14-08-2018 12:20:00 20.7 C 78 % 16.73 C
150 14-08-2018 12:25:00 20.8 C 77 % 16.62 C
Sensor: Nr:Datum:Temp:Feuchte:Taupunkt:
Aussen-T/F 151 14-08-2018 12:30:00 21 C 77 % 16.81 C
152 14-08-2018 12:35:00 21.1 C 77 % 16.91 C
153 14-08-2018 12:40:00 21.1 C 76 % 16.7 C
154 14-08-2018 12:45:00 20.8 C 76 % 16.41 C
155 14-08-2018 12:50:00 20.7 C 77 % 16.52 C
156 14-08-2018 12:55:00 20.6 C 78 % 16.63 C
157 14-08-2018 13:00:00 20.5 C 79 % 16.73 C
158 14-08-2018 13:05:00 20.4 C 81 % 17.03 C
159 14-08-2018 13:10:00 20.4 C 81 % 17.03 C
160 14-08-2018 13:15:00 20.6 C 81 % 17.22 C
161 14-08-2018 13:20:00 20.9 C 79 % 17.12 C
162 14-08-2018 13:25:00 21.3 C 77 % 17.1 C
163 14-08-2018 13:30:00 21.6 C 75 % 16.98 C
164 14-08-2018 13:35:00 21.8 C 74 % 16.96 C
165 14-08-2018 13:40:00 21.7 C 75 % 17.07 C
166 14-08-2018 13:45:00 21.8 C 74 % 16.96 C
167 14-08-2018 13:50:00 21.8 C 73 % 16.75 C
168 14-08-2018 13:55:00 21.8 C 73 % 16.75 C
169 14-08-2018 14:00:00 21.7 C 73 % 16.65 C
170 14-08-2018 14:05:00 21.5 C 75 % 16.88 C
171 14-08-2018 14:10:00 21.4 C 75 % 16.79 C
172 14-08-2018 14:15:00 21.3 C 75 % 16.69 C
173 14-08-2018 14:20:00 21.3 C 76 % 16.9 C
174 14-08-2018 14:25:00 21.3 C 76 % 16.9 C
175 14-08-2018 14:30:00 21.3 C 75 % 16.69 C
Sensor: Nr:Datum:Temp:Feuchte:Taupunkt:
Aussen-T/F 176 14-08-2018 14:35:00 21.3 C 73 % 16.26 C
177 14-08-2018 14:40:00 21.3 C 75 % 16.69 C
178 14-08-2018 14:45:00 21.5 C 75 % 16.88 C
179 14-08-2018 14:50:00 21.6 C 74 % 16.77 C
180 14-08-2018 14:55:00 21.7 C 75 % 17.07 C
181 14-08-2018 15:00:00 21.7 C 77 % 17.49 C
182 14-08-2018 15:05:00 21.7 C 77 % 17.49 C
183 14-08-2018 15:10:00 21.6 C 75 % 16.98 C
184 14-08-2018 15:15:00 21.6 C 76 % 17.19 C
185 14-08-2018 15:20:00 21.7 C 75 % 17.07 C
186 14-08-2018 15:25:00 21.8 C 73 % 16.75 C
187 14-08-2018 15:30:00 21.9 C 73 % 16.84 C
188 14-08-2018 15:35:00 22 C 74 % 17.15 C
189 14-08-2018 15:40:00 22.1 C 73 % 17.03 C
190 14-08-2018 15:45:00 22.3 C 70 % 16.56 C
191 14-08-2018 15:50:00 22.5 C 67 % 16.07 C
192 14-08-2018 15:55:00 22.6 C 66 % 15.93 C
193 14-08-2018 16:00:00 22.7 C 66 % 16.02 C
194 14-08-2018 16:05:00 22.7 C 67 % 16.26 C
195 14-08-2018 16:10:00 22.7 C 64 % 15.54 C
196 14-08-2018 16:15:00 22.8 C 66 % 16.12 C
197 14-08-2018 16:20:00 23.1 C 65 % 16.16 C
198 14-08-2018 16:25:00 23.3 C 64 % 16.11 C
199 14-08-2018 16:30:00 23.3 C 64 % 16.11 C
200 14-08-2018 16:35:00 23.3 C 64 % 16.11 C
Sensor: Nr:Datum:Temp:Feuchte:Taupunkt:
Aussen-T/F 201 14-08-2018 16:40:00 23.4 C 62 % 15.71 C
202 14-08-2018 16:45:00 23.4 C 66 % 16.69 C
203 14-08-2018 16:50:00 23.3 C 65 % 16.35 C
204 14-08-2018 16:55:00 23.2 C 64 % 16.01 C
205 14-08-2018 17:00:00 23.1 C 65 % 16.16 C
206 14-08-2018 17:05:00 23.1 C 65 % 16.16 C
207 14-08-2018 17:10:00 23.1 C 65 % 16.16 C
208 14-08-2018 17:15:00 23.2 C 65 % 16.26 C
209 14-08-2018 17:20:00 23.2 C 66 % 16.5 C
210 14-08-2018 17:25:00 23.2 C 70 % 17.42 C
211 14-08-2018 17:30:00 23.1 C 67 % 16.64 C
212 14-08-2018 17:35:00 22.9 C 69 % 16.91 C
213 14-08-2018 17:40:00 22.8 C 69 % 16.82 C
214 14-08-2018 17:45:00 22.7 C 71 % 17.17 C
215 14-08-2018 17:50:00 22.6 C 67 % 16.16 C
216 14-08-2018 17:55:00 22.6 C 67 % 16.16 C
217 14-08-2018 18:00:00 22.6 C 67 % 16.16 C
218 14-08-2018 18:05:00 22.6 C 68 % 16.39 C
219 14-08-2018 18:10:00 22.3 C 71 % 16.79 C
220 14-08-2018 18:15:00 21.9 C 75 % 17.27 C
221 14-08-2018 18:20:00 21.4 C 79 % 17.61 C
222 14-08-2018 18:25:00 20.9 C 82 % 17.71 C
223 14-08-2018 18:30:00 20.6 C 83 % 17.61 C
224 14-08-2018 18:35:00 20.1 C 83 % 17.12 C
225 14-08-2018 18:40:00 19.7 C 84 % 16.92 C
Sensor: Nr:Datum:Temp:Feuchte:Taupunkt:
Aussen-T/F 226 14-08-2018 18:45:00 19.4 C 85 % 16.81 C
227 14-08-2018 18:50:00 19.2 C 85 % 16.62 C
228 14-08-2018 18:55:00 19.1 C 86 % 16.7 C
229 14-08-2018 19:00:00 18.9 C 87 % 16.69 C
230 14-08-2018 19:05:00 18.8 C 88 % 16.77 C
231 14-08-2018 19:10:00 18.7 C 88 % 16.67 C
232 14-08-2018 19:15:00 18.7 C 88 % 16.67 C
233 14-08-2018 19:20:00 18.6 C 89 % 16.75 C
234 14-08-2018 19:25:00 18.4 C 89 % 16.55 C
235 14-08-2018 19:30:00 18.4 C 89 % 16.55 C
236 14-08-2018 19:35:00 18.3 C 89 % 16.46 C
237 14-08-2018 19:40:00 18.3 C 90 % 16.63 C
238 14-08-2018 19:45:00 18.2 C 90 % 16.53 C
239 14-08-2018 19:50:00 18.2 C 90 % 16.53 C
240 14-08-2018 19:55:00 18.2 C 90 % 16.53 C
241 14-08-2018 20:00:00 18.1 C 90 % 16.43 C
242 14-08-2018 20:05:00 18.1 C 90 % 16.43 C
243 14-08-2018 20:10:00 18 C 90 % 16.34 C
244 14-08-2018 20:15:00 18.1 C 91 % 16.61 C
245 14-08-2018 20:20:00 18.1 C 91 % 16.61 C
246 14-08-2018 20:25:00 18.2 C 91 % 16.71 C
247 14-08-2018 20:30:00 18.1 C 90 % 16.43 C
248 14-08-2018 20:35:00 18.1 C 90 % 16.43 C
249 14-08-2018 20:40:00 18 C 90 % 16.34 C
250 14-08-2018 20:45:00 17.9 C 90 % 16.24 C
Sensor: Nr:Datum:Temp:Feuchte:Taupunkt:
Aussen-T/F 251 14-08-2018 20:50:00 17.8 C 90 % 16.14 C
252 14-08-2018 20:55:00 17.7 C 90 % 16.04 C
253 14-08-2018 21:00:00 17.6 C 90 % 15.94 C
254 14-08-2018 21:05:00 17.6 C 90 % 15.94 C
255 14-08-2018 21:10:00 17.5 C 91 % 16.01 C
256 14-08-2018 21:15:00 17.4 C 91 % 15.92 C
257 14-08-2018 21:20:00 17.3 C 91 % 15.82 C
258 14-08-2018 21:25:00 17.3 C 91 % 15.82 C
259 14-08-2018 21:30:00 17.2 C 91 % 15.72 C
260 14-08-2018 21:35:00 17.1 C 91 % 15.62 C
261 14-08-2018 21:40:00 17.1 C 91 % 15.62 C
262 14-08-2018 21:45:00 17 C 91 % 15.52 C
263 14-08-2018 21:50:00 16.9 C 91 % 15.42 C
264 14-08-2018 21:55:00 16.9 C 91 % 15.42 C
265 14-08-2018 22:00:00 16.9 C 92 % 15.59 C
266 14-08-2018 22:05:00 16.9 C 92 % 15.59 C
267 14-08-2018 22:10:00 16.9 C 92 % 15.59 C
268 14-08-2018 22:15:00 16.9 C 92 % 15.59 C
269 14-08-2018 22:20:00 16.9 C 92 % 15.59 C
270 14-08-2018 22:25:00 16.9 C 92 % 15.59 C
271 14-08-2018 22:30:00 16.9 C 93 % 15.76 C
272 14-08-2018 22:35:00 17 C 93 % 15.86 C
273 14-08-2018 22:40:00 17 C 93 % 15.86 C
274 14-08-2018 22:45:00 17.1 C 93 % 15.96 C
275 14-08-2018 22:50:00 17.1 C 93 % 15.96 C
Sensor: Nr:Datum:Temp:Feuchte:Taupunkt:
Aussen-T/F 276 14-08-2018 22:55:00 17.1 C 93 % 15.96 C
277 14-08-2018 23:00:00 17.1 C 93 % 15.96 C
278 14-08-2018 23:05:00 17.2 C 93 % 16.06 C
279 14-08-2018 23:10:00 17.2 C 93 % 16.06 C
280 14-08-2018 23:15:00 17.2 C 93 % 16.06 C
281 14-08-2018 23:20:00 17.2 C 93 % 16.06 C
282 14-08-2018 23:25:00 17.2 C 93 % 16.06 C
283 14-08-2018 23:30:00 17.2 C 93 % 16.06 C
284 14-08-2018 23:35:00 17.3 C 93 % 16.16 C
285 14-08-2018 23:40:00 17.3 C 93 % 16.16 C
286 14-08-2018 23:45:00 17.3 C 93 % 16.16 C
287 14-08-2018 23:50:00 17.3 C 93 % 16.16 C
288 14-08-2018 23:55:00 17.3 C 93 % 16.16 C
289 15-08-2018 00:00:00 17.3 C 93 % 16.16 C
290 15-08-2018 00:05:00 17.2 C 93 % 16.06 C
291 15-08-2018 00:10:00 17.1 C 93 % 15.96 C
292 15-08-2018 00:15:00 17.1 C 93 % 15.96 C
293 15-08-2018 00:20:00 17 C 93 % 15.86 C
294 15-08-2018 00:25:00 16.9 C 93 % 15.76 C
295 15-08-2018 00:30:00 16.8 C 92 % 15.49 C
296 15-08-2018 00:35:00 16.7 C 92 % 15.39 C
297 15-08-2018 00:40:00 16.6 C 93 % 15.46 C
298 15-08-2018 00:45:00 16.6 C 93 % 15.46 C
299 15-08-2018 00:50:00 16.5 C 93 % 15.36 C
300 15-08-2018 00:55:00 16.5 C 93 % 15.36 C
Sensor: Nr:Datum:Temp:Feuchte:Taupunkt:
Aussen-T/F 301 15-08-2018 01:00:00 16.4 C 93 % 15.27 C
302 15-08-2018 01:05:00 16.4 C 93 % 15.27 C
303 15-08-2018 01:10:00 16.4 C 93 % 15.27 C
304 15-08-2018 01:15:00 16.4 C 93 % 15.27 C
305 15-08-2018 01:20:00 16.5 C 93 % 15.36 C
306 15-08-2018 01:25:00 16.6 C 93 % 15.46 C
307 15-08-2018 01:30:00 16.6 C 93 % 15.46 C
308 15-08-2018 01:35:00 16.5 C 93 % 15.36 C
309 15-08-2018 01:40:00 16.4 C 93 % 15.27 C
310 15-08-2018 01:45:00 16.3 C 93 % 15.17 C
311 15-08-2018 01:50:00 16.3 C 93 % 15.17 C
312 15-08-2018 01:55:00 16.2 C 93 % 15.07 C
313 15-08-2018 02:00:00 16.1 C 93 % 14.97 C
314 15-08-2018 02:05:00 16 C 93 % 14.87 C
315 15-08-2018 02:10:00 15.9 C 93 % 14.77 C
316 15-08-2018 02:15:00 15.9 C 93 % 14.77 C
317 15-08-2018 02:20:00 15.9 C 93 % 14.77 C
318 15-08-2018 02:25:00 15.9 C 94 % 14.94 C
319 15-08-2018 02:30:00 16 C 94 % 15.03 C
320 15-08-2018 02:35:00 16.1 C 94 % 15.13 C
321 15-08-2018 02:40:00 16.2 C 94 % 15.23 C
322 15-08-2018 02:45:00 16.2 C 94 % 15.23 C
323 15-08-2018 02:50:00 16.2 C 94 % 15.23 C
324 15-08-2018 02:55:00 16.2 C 94 % 15.23 C
325 15-08-2018 03:00:00 16.3 C 94 % 15.33 C
Sensor: Nr:Datum:Temp:Feuchte:Taupunkt:
Aussen-T/F 326 15-08-2018 03:05:00 16.3 C 94 % 15.33 C
327 15-08-2018 03:10:00 16.4 C 94 % 15.43 C
328 15-08-2018 03:15:00 16.3 C 94 % 15.33 C
329 15-08-2018 03:20:00 16.2 C 93 % 15.07 C
330 15-08-2018 03:25:00 16.1 C 93 % 14.97 C
331 15-08-2018 03:30:00 15.9 C 93 % 14.77 C
332 15-08-2018 03:35:00 15.7 C 93 % 14.57 C
333 15-08-2018 03:40:00 15.7 C 93 % 14.57 C
334 15-08-2018 03:45:00 15.7 C 94 % 14.74 C
335 15-08-2018 03:50:00 15.7 C 94 % 14.74 C
336 15-08-2018 03:55:00 15.6 C 94 % 14.64 C
337 15-08-2018 04:00:00 15.6 C 94 % 14.64 C
338 15-08-2018 04:05:00 15.6 C 94 % 14.64 C
339 15-08-2018 04:10:00 15.6 C 94 % 14.64 C
340 15-08-2018 04:15:00 15.6 C 94 % 14.64 C
341 15-08-2018 04:20:00 15.7 C 94 % 14.74 C
342 15-08-2018 04:25:00 15.7 C 94 % 14.74 C
343 15-08-2018 04:30:00 15.8 C 94 % 14.84 C
344 15-08-2018 04:35:00 15.9 C 94 % 14.94 C
345 15-08-2018 04:40:00 15.9 C 94 % 14.94 C
346 15-08-2018 04:45:00 16 C 94 % 15.03 C
347 15-08-2018 04:50:00 16.1 C 94 % 15.13 C
348 15-08-2018 04:55:00 16.1 C 94 % 15.13 C
349 15-08-2018 05:00:00 16.1 C 94 % 15.13 C
350 15-08-2018 05:05:00 16 C 94 % 15.03 C
Sensor: Nr:Datum:Temp:Feuchte:Taupunkt:
Aussen-T/F 351 15-08-2018 05:10:00 16 C 94 % 15.03 C
352 15-08-2018 05:15:00 15.9 C 94 % 14.94 C
353 15-08-2018 05:20:00 15.9 C 94 % 14.94 C
354 15-08-2018 05:25:00 15.9 C 94 % 14.94 C
355 15-08-2018 05:30:00 15.9 C 94 % 14.94 C
356 15-08-2018 05:35:00 16 C 94 % 15.03 C
357 15-08-2018 05:40:00 16 C 94 % 15.03 C
358 15-08-2018 05:45:00 16 C 94 % 15.03 C
359 15-08-2018 05:50:00 16.1 C 94 % 15.13 C
360 15-08-2018 05:55:00 16.1 C 94 % 15.13 C
361 15-08-2018 06:00:00 16.1 C 94 % 15.13 C
362 15-08-2018 06:05:00 16.1 C 94 % 15.13 C
363 15-08-2018 06:10:00 16.1 C 94 % 15.13 C
364 15-08-2018 06:15:00 16.1 C 94 % 15.13 C
365 15-08-2018 06:20:00 16.1 C 94 % 15.13 C
366 15-08-2018 06:25:00 16 C 94 % 15.03 C
367 15-08-2018 06:30:00 16 C 94 % 15.03 C
368 15-08-2018 06:35:00 16.1 C 94 % 15.13 C
369 15-08-2018 06:40:00 16.1 C 94 % 15.13 C
370 15-08-2018 06:45:00 16 C 94 % 15.03 C
371 15-08-2018 06:50:00 16 C 94 % 15.03 C
372 15-08-2018 06:55:00 16.1 C 94 % 15.13 C
373 15-08-2018 07:00:00 16.1 C 94 % 15.13 C
374 15-08-2018 07:05:00 16.1 C 94 % 15.13 C
375 15-08-2018 07:10:00 16.1 C 94 % 15.13 C
Sensor: Nr:Datum:Temp:Feuchte:Taupunkt:
Aussen-T/F 376 15-08-2018 07:15:00 16.1 C 94 % 15.13 C
377 15-08-2018 07:20:00 16.1 C 94 % 15.13 C
378 15-08-2018 07:25:00 16.1 C 94 % 15.13 C
379 15-08-2018 07:30:00 16.2 C 94 % 15.23 C
380 15-08-2018 07:35:00 16.2 C 94 % 15.23 C
381 15-08-2018 07:40:00 16.2 C 94 % 15.23 C
382 15-08-2018 07:45:00 16.2 C 94 % 15.23 C
383 15-08-2018 07:50:00 16.2 C 94 % 15.23 C
384 15-08-2018 07:55:00 16.2 C 94 % 15.23 C
385 15-08-2018 08:00:00 16.2 C 94 % 15.23 C
386 15-08-2018 08:05:00 16.3 C 94 % 15.33 C
387 15-08-2018 08:10:00 16.3 C 94 % 15.33 C
388 15-08-2018 08:15:00 16.4 C 94 % 15.43 C
389 15-08-2018 08:20:00 16.4 C 93 % 15.27 C
390 15-08-2018 08:25:00 16.5 C 93 % 15.36 C
391 15-08-2018 08:30:00 16.6 C 93 % 15.46 C
392 15-08-2018 08:35:00 16.6 C 93 % 15.46 C
393 15-08-2018 08:40:00 16.7 C 93 % 15.56 C
394 15-08-2018 08:45:00 16.8 C 93 % 15.66 C
395 15-08-2018 08:50:00 16.9 C 92 % 15.59 C
396 15-08-2018 08:55:00 17 C 92 % 15.69 C
397 15-08-2018 09:00:00 17.1 C 91 % 15.62 C
398 15-08-2018 09:05:00 17.2 C 91 % 15.72 C
399 15-08-2018 09:10:00 17.3 C 91 % 15.82 C
400 15-08-2018 09:15:00 17.4 C 90 % 15.74 C
Sensor: Nr:Datum:Temp:Feuchte:Taupunkt:
Aussen-T/F 401 15-08-2018 09:20:00 17.6 C 90 % 15.94 C
402 15-08-2018 09:25:00 17.7 C 90 % 16.04 C
403 15-08-2018 09:30:00 17.8 C 90 % 16.14 C
404 15-08-2018 09:35:00 17.9 C 88 % 15.88 C
405 15-08-2018 09:40:00 18.1 C 89 % 16.26 C
406 15-08-2018 09:45:00 18.2 C 88 % 16.18 C
407 15-08-2018 09:50:00 18.3 C 87 % 16.1 C
408 15-08-2018 09:55:00 18.4 C 86 % 16.02 C
409 15-08-2018 10:00:00 18.6 C 86 % 16.21 C
410 15-08-2018 10:05:00 18.7 C 84 % 15.94 C
411 15-08-2018 10:10:00 18.7 C 84 % 15.94 C
412 15-08-2018 10:15:00 18.8 C 83 % 15.85 C
413 15-08-2018 10:20:00 18.8 C 83 % 15.85 C
414 15-08-2018 10:25:00 18.8 C 83 % 15.85 C
415 15-08-2018 10:30:00 18.9 C 83 % 15.95 C
416 15-08-2018 10:35:00 19.1 C 82 % 15.96 C
417 15-08-2018 10:40:00 19.1 C 79 % 15.37 C
418 15-08-2018 10:45:00 19.3 C 79 % 15.57 C
419 15-08-2018 10:50:00 19.4 C 80 % 15.86 C
420 15-08-2018 10:55:00 19.5 C 77 % 15.36 C
421 15-08-2018 11:00:00 19.6 C 77 % 15.46 C
422 15-08-2018 11:05:00 19.5 C 76 % 15.16 C
423 15-08-2018 11:10:00 19.5 C 76 % 15.16 C
424 15-08-2018 11:15:00 19.6 C 75 % 15.05 C
425 15-08-2018 11:20:00 19.6 C 74 % 14.84 C
Sensor: Nr:Datum:Temp:Feuchte:Taupunkt:
Aussen-T/F 426 15-08-2018 11:25:00 19.6 C 74 % 14.84 C
427 15-08-2018 11:30:00 19.7 C 74 % 14.94 C
428 15-08-2018 11:35:00 19.8 C 68 % 13.73 C
429 15-08-2018 11:40:00 19.9 C 68 % 13.82 C
430 15-08-2018 11:45:00 20.1 C 69 % 14.24 C
431 15-08-2018 11:50:00 20.3 C 64 % 13.27 C
432 15-08-2018 11:55:00 20.5 C 67 % 14.16 C
433 15-08-2018 12:00:00 20.7 C 69 % 14.81 C
434 15-08-2018 12:05:00 20.8 C 67 % 14.45 C
435 15-08-2018 12:10:00 21 C 67 % 14.64 C
436 15-08-2018 12:15:00 21.2 C 68 % 15.06 C
437 15-08-2018 12:20:00 21.4 C 66 % 14.79 C
438 15-08-2018 12:25:00 21.5 C 65 % 14.65 C
439 15-08-2018 12:30:00 21.4 C 65 % 14.55 C
440 15-08-2018 12:35:00 21.6 C 66 % 14.98 C
441 15-08-2018 12:40:00 21.7 C 67 % 15.31 C
442 15-08-2018 12:45:00 21.8 C 68 % 15.63 C
443 15-08-2018 12:50:00 21.9 C 66 % 15.26 C
444 15-08-2018 12:55:00 22.1 C 66 % 15.45 C
445 15-08-2018 13:00:00 22.2 C 62 % 14.58 C
446 15-08-2018 13:05:00 22.2 C 62 % 14.58 C
447 15-08-2018 13:10:00 22.2 C 63 % 14.82 C
448 15-08-2018 13:15:00 22.3 C 64 % 15.16 C
449 15-08-2018 13:20:00 22.5 C 64 % 15.35 C
450 15-08-2018 13:25:00 22.6 C 64 % 15.45 C
Sensor: Nr:Datum:Temp:Feuchte:Taupunkt:
Aussen-T/F 451 15-08-2018 13:30:00 22.8 C 61 % 14.89 C
452 15-08-2018 13:35:00 22.8 C 61 % 14.89 C
453 15-08-2018 13:40:00 22.8 C 62 % 15.14 C
454 15-08-2018 13:45:00 22.9 C 63 % 15.48 C
455 15-08-2018 13:50:00 23.1 C 60 % 14.91 C
456 15-08-2018 13:55:00 23.1 C 59 % 14.65 C
457 15-08-2018 14:00:00 23 C 59 % 14.56 C
458 15-08-2018 14:05:00 23 C 61 % 15.08 C
459 15-08-2018 14:10:00 22.9 C 60 % 14.73 C
460 15-08-2018 14:15:00 22.9 C 60 % 14.73 C
461 15-08-2018 14:20:00 22.8 C 59 % 14.37 C
462 15-08-2018 14:25:00 22.8 C 59 % 14.37 C
463 15-08-2018 14:30:00 22.9 C 62 % 15.23 C
464 15-08-2018 14:35:00 23 C 63 % 15.58 C
465 15-08-2018 14:40:00 23.1 C 59 % 14.65 C
466 15-08-2018 14:45:00 23.2 C 59 % 14.75 C
467 15-08-2018 14:50:00 23.3 C 60 % 15.1 C
468 15-08-2018 14:55:00 23.4 C 60 % 15.19 C
469 15-08-2018 15:00:00 23.5 C 58 % 14.76 C
470 15-08-2018 15:05:00 23.4 C 57 % 14.4 C
471 15-08-2018 15:10:00 23.4 C 58 % 14.67 C
472 15-08-2018 15:15:00 23.5 C 59 % 15.03 C
473 15-08-2018 15:20:00 23.6 C 59 % 15.12 C
474 15-08-2018 15:25:00 23.7 C 57 % 14.68 C
475 15-08-2018 15:30:00 23.7 C 57 % 14.68 C
Sensor: Nr:Datum:Temp:Feuchte:Taupunkt:
Aussen-T/F 476 15-08-2018 15:35:00 23.8 C 56 % 14.5 C
477 15-08-2018 15:40:00 23.9 C 57 % 14.87 C
478 15-08-2018 15:45:00 23.9 C 56 % 14.59 C
479 15-08-2018 15:50:00 23.9 C 58 % 15.14 C
480 15-08-2018 15:55:00 24.1 C 56 % 14.78 C
481 15-08-2018 16:00:00 24.2 C 55 % 14.59 C
482 15-08-2018 16:05:00 24.2 C 56 % 14.87 C
483 15-08-2018 16:10:00 24.3 C 56 % 14.96 C
484 15-08-2018 16:15:00 24.4 C 56 % 15.06 C
485 15-08-2018 16:20:00 24.6 C 54 % 14.68 C
486 15-08-2018 16:25:00 24.6 C 55 % 14.96 C
487 15-08-2018 16:30:00 24.5 C 55 % 14.87 C
488 15-08-2018 16:35:00 24.4 C 54 % 14.49 C
489 15-08-2018 16:40:00 24.4 C 56 % 15.06 C
490 15-08-2018 16:45:00 24.3 C 55 % 14.68 C
491 15-08-2018 16:50:00 24.2 C 58 % 15.42 C
492 15-08-2018 16:55:00 24.1 C 56 % 14.78 C
493 15-08-2018 17:00:00 24.1 C 56 % 14.78 C
494 15-08-2018 17:05:00 24 C 56 % 14.68 C
495 15-08-2018 17:10:00 23.9 C 58 % 15.14 C
496 15-08-2018 17:15:00 23.8 C 57 % 14.77 C
497 15-08-2018 17:20:00 23.8 C 57 % 14.77 C
498 15-08-2018 17:25:00 23.8 C 57 % 14.77 C
499 15-08-2018 17:30:00 23.8 C 67 % 17.3 C
500 15-08-2018 17:35:00 23.9 C 69 % 17.87 C
Sensor: Nr:Datum:Temp:Feuchte:Taupunkt:
Aussen-T/F 501 15-08-2018 17:40:00 23.8 C 69 % 17.77 C
502 15-08-2018 17:45:00 23.7 C 68 % 17.44 C
503 15-08-2018 17:50:00 23.7 C 69 % 17.67 C
504 15-08-2018 17:55:00 23.5 C 64 % 16.3 C
505 15-08-2018 18:00:00 23.4 C 69 % 17.39 C
506 15-08-2018 18:05:00 23.3 C 70 % 17.52 C
507 15-08-2018 18:10:00 23.2 C 70 % 17.42 C
508 15-08-2018 18:15:00 23.1 C 70 % 17.33 C
509 15-08-2018 18:20:00 22.9 C 71 % 17.36 C
510 15-08-2018 18:25:00 22.9 C 71 % 17.36 C
511 15-08-2018 18:30:00 22.8 C 71 % 17.27 C
512 15-08-2018 18:35:00 22.7 C 71 % 17.17 C
513 15-08-2018 18:40:00 22.7 C 72 % 17.39 C
514 15-08-2018 18:45:00 22.7 C 71 % 17.17 C
515 15-08-2018 18:50:00 22.7 C 71 % 17.17 C
516 15-08-2018 18:55:00 22.7 C 72 % 17.39 C
517 15-08-2018 19:00:00 22.8 C 72 % 17.49 C
518 15-08-2018 19:05:00 22.8 C 72 % 17.49 C
519 15-08-2018 19:10:00 22.7 C 71 % 17.17 C
520 15-08-2018 19:15:00 22.7 C 72 % 17.39 C
521 15-08-2018 19:20:00 22.6 C 72 % 17.3 C
522 15-08-2018 19:25:00 22.5 C 73 % 17.42 C
523 15-08-2018 19:30:00 22.4 C 73 % 17.32 C
524 15-08-2018 19:35:00 22.3 C 74 % 17.44 C
525 15-08-2018 19:40:00 22.2 C 73 % 17.13 C
Sensor: Nr:Datum:Temp:Feuchte:Taupunkt:
Aussen-T/F 526 15-08-2018 19:45:00 22.1 C 72 % 16.82 C
527 15-08-2018 19:50:00 22 C 73 % 16.94 C
528 15-08-2018 19:55:00 21.9 C 73 % 16.84 C
529 15-08-2018 20:00:00 21.8 C 73 % 16.75 C
530 15-08-2018 20:05:00 21.6 C 73 % 16.55 C
531 15-08-2018 20:10:00 21.5 C 74 % 16.67 C
532 15-08-2018 20:15:00 21.4 C 74 % 16.57 C
533 15-08-2018 20:20:00 21.3 C 73 % 16.26 C
534 15-08-2018 20:25:00 21.2 C 74 % 16.38 C
535 15-08-2018 20:30:00 21.1 C 74 % 16.29 C
536 15-08-2018 20:35:00 21 C 74 % 16.19 C
537 15-08-2018 20:40:00 20.9 C 74 % 16.09 C
538 15-08-2018 20:45:00 20.8 C 73 % 15.78 C
539 15-08-2018 20:50:00 20.8 C 74 % 16 C
540 15-08-2018 20:55:00 20.7 C 74 % 15.9 C
541 15-08-2018 21:00:00 20.6 C 74 % 15.8 C
542 15-08-2018 21:05:00 20.5 C 74 % 15.71 C
543 15-08-2018 21:10:00 20.4 C 75 % 15.82 C
544 15-08-2018 21:15:00 20.4 C 75 % 15.82 C
545 15-08-2018 21:20:00 20.3 C 75 % 15.72 C
546 15-08-2018 21:25:00 20.2 C 76 % 15.83 C
547 15-08-2018 21:30:00 20.2 C 76 % 15.83 C
548 15-08-2018 21:35:00 20.1 C 76 % 15.74 C
549 15-08-2018 21:40:00 20.1 C 77 % 15.94 C
550 15-08-2018 21:45:00 19.9 C 77 % 15.75 C
Sensor: Nr:Datum:Temp:Feuchte:Taupunkt:
Aussen-T/F 551 15-08-2018 21:50:00 19.9 C 77 % 15.75 C
552 15-08-2018 21:55:00 19.8 C 78 % 15.85 C
553 15-08-2018 22:00:00 19.8 C 78 % 15.85 C
554 15-08-2018 22:05:00 19.7 C 77 % 15.56 C
555 15-08-2018 22:10:00 19.6 C 78 % 15.66 C
556 15-08-2018 22:15:00 19.6 C 78 % 15.66 C
557 15-08-2018 22:20:00 19.4 C 77 % 15.27 C
558 15-08-2018 22:25:00 19.3 C 78 % 15.37 C
559 15-08-2018 22:30:00 19.2 C 78 % 15.27 C
560 15-08-2018 22:35:00 19.1 C 79 % 15.37 C
561 15-08-2018 22:40:00 19 C 79 % 15.28 C
562 15-08-2018 22:45:00 18.9 C 79 % 15.18 C
563 15-08-2018 22:50:00 18.8 C 80 % 15.28 C
564 15-08-2018 22:55:00 18.6 C 80 % 15.08 C
565 15-08-2018 23:00:00 18.4 C 80 % 14.89 C
566 15-08-2018 23:05:00 18.3 C 80 % 14.79 C
567 15-08-2018 23:10:00 18.2 C 80 % 14.69 C
568 15-08-2018 23:15:00 18 C 81 % 14.69 C
569 15-08-2018 23:20:00 17.8 C 81 % 14.5 C
570 15-08-2018 23:25:00 17.7 C 81 % 14.4 C
571 15-08-2018 23:30:00 17.6 C 82 % 14.49 C
572 15-08-2018 23:35:00 17.4 C 82 % 14.3 C
573 15-08-2018 23:40:00 17.3 C 83 % 14.39 C
574 15-08-2018 23:45:00 17.3 C 83 % 14.39 C
575 15-08-2018 23:50:00 17.1 C 83 % 14.19 C
Sensor: Nr:Datum:Temp:Feuchte:Taupunkt:
Aussen-T/F 576 15-08-2018 23:55:00 17 C 84 % 14.28 C
577 16-08-2018 00:00:00 16.9 C 84 % 14.18 C
578 16-08-2018 00:05:00 16.8 C 84 % 14.08 C
579 16-08-2018 00:10:00 16.7 C 84 % 13.98 C
580 16-08-2018 00:15:00 16.6 C 85 % 14.07 C
581 16-08-2018 00:20:00 16.4 C 85 % 13.87 C
582 16-08-2018 00:25:00 16.3 C 85 % 13.77 C
583 16-08-2018 00:30:00 16.3 C 86 % 13.95 C
584 16-08-2018 00:35:00 16.2 C 86 % 13.86 C
585 16-08-2018 00:40:00 16.1 C 86 % 13.76 C
586 16-08-2018 00:45:00 16 C 86 % 13.66 C
587 16-08-2018 00:50:00 15.9 C 87 % 13.74 C
588 16-08-2018 00:55:00 15.8 C 87 % 13.64 C
589 16-08-2018 01:00:00 15.8 C 87 % 13.64 C
590 16-08-2018 01:05:00 15.7 C 87 % 13.54 C
591 16-08-2018 01:10:00 15.7 C 87 % 13.54 C
592 16-08-2018 01:15:00 15.6 C 88 % 13.62 C
593 16-08-2018 01:20:00 15.6 C 88 % 13.62 C
594 16-08-2018 01:25:00 15.5 C 88 % 13.52 C
595 16-08-2018 01:30:00 15.4 C 87 % 13.25 C
596 16-08-2018 01:35:00 15.4 C 88 % 13.42 C
597 16-08-2018 01:40:00 15.3 C 88 % 13.33 C
598 16-08-2018 01:45:00 15.3 C 88 % 13.33 C
599 16-08-2018 01:50:00 15.2 C 88 % 13.23 C
600 16-08-2018 01:55:00 15.1 C 88 % 13.13 C
Sensor: Nr:Datum:Temp:Feuchte:Taupunkt:
Aussen-T/F 601 16-08-2018 02:00:00 15.1 C 88 % 13.13 C
602 16-08-2018 02:05:00 15 C 89 % 13.2 C
603 16-08-2018 02:10:00 14.9 C 89 % 13.1 C
604 16-08-2018 02:15:00 14.9 C 89 % 13.1 C
605 16-08-2018 02:20:00 14.9 C 89 % 13.1 C
606 16-08-2018 02:25:00 14.9 C 90 % 13.28 C
607 16-08-2018 02:30:00 14.9 C 90 % 13.28 C
608 16-08-2018 02:35:00 14.9 C 89 % 13.1 C
609 16-08-2018 02:40:00 14.8 C 89 % 13.01 C
610 16-08-2018 02:45:00 14.7 C 89 % 12.91 C
611 16-08-2018 02:50:00 14.7 C 90 % 13.08 C
612 16-08-2018 02:55:00 14.7 C 90 % 13.08 C
613 16-08-2018 03:00:00 14.7 C 90 % 13.08 C
614 16-08-2018 03:05:00 14.6 C 90 % 12.98 C
615 16-08-2018 03:10:00 14.6 C 90 % 12.98 C
616 16-08-2018 03:15:00 14.5 C 90 % 12.88 C
617 16-08-2018 03:20:00 14.4 C 90 % 12.78 C
618 16-08-2018 03:25:00 14.3 C 90 % 12.68 C
619 16-08-2018 03:30:00 14.3 C 90 % 12.68 C
620 16-08-2018 03:35:00 14.2 C 90 % 12.58 C
621 16-08-2018 03:40:00 14.2 C 90 % 12.58 C
622 16-08-2018 03:45:00 14.2 C 91 % 12.75 C
623 16-08-2018 03:50:00 14.1 C 91 % 12.65 C
624 16-08-2018 03:55:00 14.1 C 91 % 12.65 C
625 16-08-2018 04:00:00 14 C 91 % 12.56 C
Sensor: Nr:Datum:Temp:Feuchte:Taupunkt:
Aussen-T/F 626 16-08-2018 04:05:00 14 C 91 % 12.56 C
627 16-08-2018 04:10:00 14.1 C 91 % 12.65 C
628 16-08-2018 04:15:00 14.1 C 91 % 12.65 C
629 16-08-2018 04:20:00 14.1 C 91 % 12.65 C
630 16-08-2018 04:25:00 14.1 C 91 % 12.65 C
631 16-08-2018 04:30:00 14 C 91 % 12.56 C
632 16-08-2018 04:35:00 14 C 91 % 12.56 C
633 16-08-2018 04:40:00 13.9 C 91 % 12.46 C
634 16-08-2018 04:45:00 13.8 C 92 % 12.52 C
635 16-08-2018 04:50:00 13.8 C 92 % 12.52 C
636 16-08-2018 04:55:00 13.7 C 91 % 12.26 C
637 16-08-2018 05:00:00 13.7 C 91 % 12.26 C
638 16-08-2018 05:05:00 13.6 C 92 % 12.33 C
639 16-08-2018 05:10:00 13.6 C 92 % 12.33 C
640 16-08-2018 05:15:00 13.5 C 92 % 12.23 C
641 16-08-2018 05:20:00 13.4 C 92 % 12.13 C
642 16-08-2018 05:25:00 13.4 C 92 % 12.13 C
643 16-08-2018 05:30:00 13.3 C 92 % 12.03 C
644 16-08-2018 05:35:00 13.3 C 92 % 12.03 C
645 16-08-2018 05:40:00 13.2 C 92 % 11.93 C
646 16-08-2018 05:45:00 13.2 C 92 % 11.93 C
647 16-08-2018 05:50:00 13.2 C 92 % 11.93 C
648 16-08-2018 05:55:00 13.1 C 92 % 11.83 C
649 16-08-2018 06:00:00 13.1 C 92 % 11.83 C
650 16-08-2018 06:05:00 13.1 C 92 % 11.83 C
Sensor: Nr:Datum:Temp:Feuchte:Taupunkt:
Aussen-T/F 651 16-08-2018 06:10:00 13 C 92 % 11.73 C
652 16-08-2018 06:15:00 12.9 C 92 % 11.63 C
653 16-08-2018 06:20:00 12.9 C 92 % 11.63 C
654 16-08-2018 06:25:00 12.9 C 93 % 11.8 C
655 16-08-2018 06:30:00 12.8 C 92 % 11.53 C
656 16-08-2018 06:35:00 12.8 C 93 % 11.7 C
657 16-08-2018 06:40:00 12.8 C 93 % 11.7 C
658 16-08-2018 06:45:00 12.8 C 93 % 11.7 C
659 16-08-2018 06:50:00 12.8 C 93 % 11.7 C
660 16-08-2018 06:55:00 12.8 C 93 % 11.7 C
661 16-08-2018 07:00:00 12.8 C 93 % 11.7 C
662 16-08-2018 07:05:00 12.8 C 93 % 11.7 C
663 16-08-2018 07:10:00 12.8 C 93 % 11.7 C
664 16-08-2018 07:15:00 12.8 C 93 % 11.7 C
665 16-08-2018 07:20:00 12.9 C 93 % 11.8 C
666 16-08-2018 07:25:00 12.9 C 93 % 11.8 C
667 16-08-2018 07:30:00 12.9 C 93 % 11.8 C
668 16-08-2018 07:35:00 12.9 C 93 % 11.8 C
669 16-08-2018 07:40:00 12.9 C 93 % 11.8 C
670 16-08-2018 07:45:00 12.9 C 93 % 11.8 C
671 16-08-2018 07:50:00 13 C 94 % 12.06 C
672 16-08-2018 07:55:00 13 C 94 % 12.06 C
673 16-08-2018 08:00:00 13.1 C 94 % 12.16 C
674 16-08-2018 08:05:00 13.2 C 94 % 12.26 C
675 16-08-2018 08:10:00 13.2 C 94 % 12.26 C
Sensor: Nr:Datum:Temp:Feuchte:Taupunkt:
Aussen-T/F 676 16-08-2018 08:15:00 13.3 C 94 % 12.36 C
677 16-08-2018 08:20:00 13.3 C 94 % 12.36 C
678 16-08-2018 08:25:00 13.4 C 94 % 12.45 C
679 16-08-2018 08:30:00 13.4 C 94 % 12.45 C
680 16-08-2018 08:35:00 13.5 C 94 % 12.55 C
681 16-08-2018 08:40:00 13.6 C 94 % 12.65 C
682 16-08-2018 08:45:00 13.7 C 94 % 12.75 C
683 16-08-2018 08:50:00 13.7 C 94 % 12.75 C
684 16-08-2018 08:55:00 13.8 C 94 % 12.85 C
685 16-08-2018 09:00:00 13.9 C 94 % 12.95 C
686 16-08-2018 09:05:00 13.9 C 94 % 12.95 C
687 16-08-2018 09:10:00 14.1 C 94 % 13.15 C
688 16-08-2018 09:15:00 14.2 C 94 % 13.25 C
689 16-08-2018 09:20:00 14.3 C 94 % 13.35 C
690 16-08-2018 09:25:00 14.3 C 94 % 13.35 C
691 16-08-2018 09:30:00 14.4 C 94 % 13.45 C
692 16-08-2018 09:35:00 14.6 C 94 % 13.65 C
693 16-08-2018 09:40:00 14.7 C 94 % 13.74 C
694 16-08-2018 09:45:00 14.8 C 94 % 13.84 C
695 16-08-2018 09:50:00 14.9 C 95 % 14.11 C
696 16-08-2018 09:55:00 15.1 C 94 % 14.14 C
697 16-08-2018 10:00:00 15.3 C 95 % 14.5 C
698 16-08-2018 10:05:00 15.4 C 95 % 14.6 C
699 16-08-2018 10:10:00 15.6 C 94 % 14.64 C
700 16-08-2018 10:15:00 15.8 C 94 % 14.84 C
Sensor: Nr:Datum:Temp:Feuchte:Taupunkt:
Aussen-T/F 701 16-08-2018 10:20:00 15.9 C 94 % 14.94 C
702 16-08-2018 10:25:00 16.1 C 94 % 15.13 C
703 16-08-2018 10:30:00 16.3 C 94 % 15.33 C
704 16-08-2018 10:35:00 16.5 C 94 % 15.53 C
705 16-08-2018 10:40:00 16.7 C 93 % 15.56 C
706 16-08-2018 10:45:00 16.9 C 93 % 15.76 C
707 16-08-2018 10:50:00 17.1 C 92 % 15.79 C
708 16-08-2018 10:55:00 17.3 C 91 % 15.82 C
709 16-08-2018 11:00:00 17.6 C 89 % 15.77 C
710 16-08-2018 11:05:00 18 C 88 % 15.98 C
711 16-08-2018 11:10:00 18.3 C 87 % 16.1 C
712 16-08-2018 11:15:00 18.6 C 85 % 16.03 C
713 16-08-2018 11:20:00 19 C 84 % 16.24 C
714 16-08-2018 11:25:00 19.4 C 84 % 16.63 C
715 16-08-2018 11:30:00 19.6 C 80 % 16.06 C
716 16-08-2018 11:35:00 19.9 C 80 % 16.35 C
717 16-08-2018 11:40:00 20.2 C 77 % 16.04 C
718 16-08-2018 11:45:00 20.6 C 75 % 16.01 C
719 16-08-2018 11:50:00 21.1 C 73 % 16.07 C
720 16-08-2018 11:55:00 21.4 C 73 % 16.36 C
721 16-08-2018 12:00:00 21.6 C 71 % 16.12 C
722 16-08-2018 12:05:00 21.8 C 71 % 16.31 C
723 16-08-2018 12:10:00 22.1 C 69 % 16.15 C
724 16-08-2018 12:15:00 22.3 C 68 % 16.11 C
725 16-08-2018 12:20:00 22.7 C 66 % 16.02 C
Sensor: Nr:Datum:Temp:Feuchte:Taupunkt:
Aussen-T/F 726 16-08-2018 12:25:00 23 C 65 % 16.07 C
727 16-08-2018 12:30:00 23.2 C 63 % 15.77 C
728 16-08-2018 12:35:00 23.4 C 64 % 16.2 C
729 16-08-2018 12:40:00 23.6 C 63 % 16.14 C
730 16-08-2018 12:45:00 23.7 C 60 % 15.48 C
731 16-08-2018 12:50:00 23.9 C 60 % 15.66 C
732 16-08-2018 12:55:00 24.1 C 58 % 15.32 C
733 16-08-2018 13:00:00 24.3 C 60 % 16.04 C
734 16-08-2018 13:05:00 24.5 C 58 % 15.7 C
735 16-08-2018 13:10:00 24.6 C 57 % 15.52 C
736 16-08-2018 13:15:00 24.7 C 60 % 16.41 C
737 16-08-2018 13:20:00 24.9 C 59 % 16.34 C
738 16-08-2018 13:25:00 24.9 C 57 % 15.8 C
739 16-08-2018 13:30:00 25.1 C 57 % 15.98 C
740 16-08-2018 13:35:00 25.2 C 55 % 15.52 C
741 16-08-2018 13:40:00 25.4 C 55 % 15.7 C
742 16-08-2018 13:45:00 25.6 C 52 % 15.02 C
743 16-08-2018 13:50:00 25.7 C 52 % 15.11 C
744 16-08-2018 13:55:00 25.9 C 51 % 14.99 C
745 16-08-2018 14:00:00 26 C 53 % 15.68 C
746 16-08-2018 14:05:00 26.1 C 51 % 15.17 C
747 16-08-2018 14:10:00 26.2 C 50 % 14.96 C
748 16-08-2018 14:15:00 26.4 C 49 % 14.83 C
749 16-08-2018 14:20:00 26.6 C 51 % 15.63 C
750 16-08-2018 14:25:00 26.8 C 49 % 15.19 C
Sensor: Nr:Datum:Temp:Feuchte:Taupunkt:
Aussen-T/F 751 16-08-2018 14:30:00 27 C 49 % 15.38 C
752 16-08-2018 14:35:00 27.2 C 48 % 15.24 C
753 16-08-2018 14:40:00 27.3 C 48 % 15.33 C
754 16-08-2018 14:45:00 27.4 C 48 % 15.42 C
755 16-08-2018 14:50:00 27.7 C 48 % 15.69 C
756 16-08-2018 14:55:00 27.8 C 47 % 15.45 C
757 16-08-2018 15:00:00 27.8 C 47 % 15.45 C
758 16-08-2018 15:05:00 28.1 C 44 % 14.7 C
759 16-08-2018 15:10:00 28.2 C 44 % 14.79 C
760 16-08-2018 15:15:00 28.4 C 43 % 14.62 C
761 16-08-2018 15:20:00 28.5 C 45 % 15.41 C
762 16-08-2018 15:25:00 28.7 C 44 % 15.24 C
763 16-08-2018 15:30:00 28.9 C 42 % 14.7 C
764 16-08-2018 15:35:00 29.2 C 44 % 15.69 C
765 16-08-2018 15:40:00 29.3 C 41 % 14.68 C
766 16-08-2018 15:45:00 29.3 C 43 % 15.42 C
767 16-08-2018 15:50:00 29.4 C 40 % 14.39 C
768 16-08-2018 15:55:00 29.6 C 43 % 15.69 C
769 16-08-2018 16:00:00 29.9 C 41 % 15.22 C
770 16-08-2018 16:05:00 30.2 C 39 % 14.71 C
771 16-08-2018 16:10:00 30.5 C 39 % 14.98 C
772 16-08-2018 16:15:00 30.7 C 38 % 14.75 C
773 16-08-2018 16:20:00 30.7 C 38 % 14.75 C
774 16-08-2018 16:25:00 30.8 C 37 % 14.43 C
775 16-08-2018 16:30:00 31 C 36 % 14.18 C
Sensor: Nr:Datum:Temp:Feuchte:Taupunkt:
Aussen-T/F 776 16-08-2018 16:35:00 31.1 C 36 % 14.27 C
777 16-08-2018 16:40:00 31.3 C 39 % 15.69 C
778 16-08-2018 16:45:00 31.3 C 36 % 14.44 C
779 16-08-2018 16:50:00 31.4 C 36 % 14.53 C
780 16-08-2018 16:55:00 31.7 C 35 % 14.36 C
781 16-08-2018 17:00:00 31.7 C 34 % 13.91 C
782 16-08-2018 17:05:00 31.8 C 33 % 13.54 C
783 16-08-2018 17:10:00 31.8 C 35 % 14.45 C
784 16-08-2018 17:15:00 31.9 C 34 % 14.09 C
785 16-08-2018 17:20:00 32.1 C 33 % 13.8 C
786 16-08-2018 17:25:00 32.2 C 34 % 14.35 C
787 16-08-2018 17:30:00 32.3 C 34 % 14.43 C
788 16-08-2018 17:35:00 32.4 C 33 % 14.06 C
789 16-08-2018 17:40:00 32.6 C 34 % 14.7 C
790 16-08-2018 17:45:00 32.6 C 33 % 14.23 C
791 16-08-2018 17:50:00 32.6 C 33 % 14.23 C
792 16-08-2018 17:55:00 32.7 C 35 % 15.23 C
793 16-08-2018 18:00:00 32.7 C 36 % 15.67 C
794 16-08-2018 18:05:00 32.7 C 33 % 14.32 C
795 16-08-2018 18:10:00 32.8 C 33 % 14.41 C
796 16-08-2018 18:15:00 32.8 C 38 % 16.61 C
797 16-08-2018 18:20:00 32.8 C 33 % 14.41 C
798 16-08-2018 18:25:00 32.7 C 33 % 14.32 C
799 16-08-2018 18:30:00 32.7 C 32 % 13.85 C
800 16-08-2018 18:35:00 32.7 C 34 % 14.78 C
Sensor: Nr:Datum:Temp:Feuchte:Taupunkt:
Aussen-T/F 801 16-08-2018 18:40:00 32.8 C 38 % 16.61 C
802 16-08-2018 18:45:00 32.9 C 39 % 17.11 C
803 16-08-2018 18:50:00 32.9 C 41 % 17.9 C
804 16-08-2018 18:55:00 32.8 C 37 % 16.19 C
805 16-08-2018 19:00:00 32.8 C 40 % 17.42 C
806 16-08-2018 19:05:00 32.7 C 40 % 17.33 C
807 16-08-2018 19:10:00 32.5 C 42 % 17.92 C
808 16-08-2018 19:15:00 32.2 C 42 % 17.65 C
809 16-08-2018 19:20:00 31.8 C 43 % 17.67 C
810 16-08-2018 19:25:00 31.3 C 44 % 17.58 C
811 16-08-2018 19:30:00 30.8 C 45 % 17.49 C
812 16-08-2018 19:35:00 30.3 C 46 % 17.39 C
813 16-08-2018 19:40:00 29.8 C 46 % 16.93 C
814 16-08-2018 19:45:00 29.3 C 48 % 17.15 C
815 16-08-2018 19:50:00 28.8 C 48 % 16.69 C
816 16-08-2018 19:55:00 28.5 C 49 % 16.75 C
817 16-08-2018 20:00:00 28.2 C 50 % 16.79 C
818 16-08-2018 20:05:00 27.9 C 51 % 16.83 C
819 16-08-2018 20:10:00 27.6 C 52 % 16.86 C
820 16-08-2018 20:15:00 27.2 C 52 % 16.49 C
821 16-08-2018 20:20:00 26.8 C 53 % 16.42 C
822 16-08-2018 20:25:00 26.4 C 54 % 16.34 C
823 16-08-2018 20:30:00 26 C 55 % 16.26 C
824 16-08-2018 20:35:00 25.6 C 55 % 15.89 C
825 16-08-2018 20:40:00 25.2 C 56 % 15.8 C
Sensor: Nr:Datum:Temp:Feuchte:Taupunkt:
Aussen-T/F 826 16-08-2018 20:45:00 24.8 C 57 % 15.7 C
827 16-08-2018 20:50:00 24.6 C 58 % 15.79 C
828 16-08-2018 20:55:00 24.2 C 57 % 15.14 C
829 16-08-2018 21:00:00 23.9 C 59 % 15.4 C
830 16-08-2018 21:05:00 23.7 C 60 % 15.48 C
831 16-08-2018 21:10:00 23.4 C 60 % 15.19 C
832 16-08-2018 21:15:00 23.2 C 61 % 15.26 C
833 16-08-2018 21:20:00 22.9 C 61 % 14.98 C
834 16-08-2018 21:25:00 22.7 C 63 % 15.3 C
835 16-08-2018 21:30:00 22.4 C 64 % 15.26 C
836 16-08-2018 21:35:00 22.2 C 65 % 15.31 C
837 16-08-2018 21:40:00 21.9 C 65 % 15.02 C
838 16-08-2018 21:45:00 21.7 C 65 % 14.84 C
839 16-08-2018 21:50:00 21.4 C 66 % 14.79 C
840 16-08-2018 21:55:00 21.2 C 67 % 14.83 C
841 16-08-2018 22:00:00 21 C 68 % 14.87 C
842 16-08-2018 22:05:00 20.8 C 69 % 14.91 C
843 16-08-2018 22:10:00 20.7 C 67 % 14.36 C
844 16-08-2018 22:15:00 20.6 C 67 % 14.26 C
845 16-08-2018 22:20:00 20.6 C 69 % 14.71 C
846 16-08-2018 22:25:00 20.6 C 67 % 14.26 C
847 16-08-2018 22:30:00 20.7 C 67 % 14.36 C
848 16-08-2018 22:35:00 20.8 C 69 % 14.91 C
849 16-08-2018 22:40:00 20.8 C 70 % 15.13 C
850 16-08-2018 22:45:00 20.8 C 70 % 15.13 C
Sensor: Nr:Datum:Temp:Feuchte:Taupunkt:
Aussen-T/F 851 16-08-2018 22:50:00 20.8 C 71 % 15.35 C
852 16-08-2018 22:55:00 20.8 C 71 % 15.35 C
853 16-08-2018 23:00:00 20.8 C 73 % 15.78 C
854 16-08-2018 23:05:00 20.7 C 73 % 15.69 C
855 16-08-2018 23:10:00 20.7 C 74 % 15.9 C
856 16-08-2018 23:15:00 20.6 C 75 % 16.01 C
857 16-08-2018 23:20:00 20.4 C 75 % 15.82 C
858 16-08-2018 23:25:00 20.3 C 75 % 15.72 C
859 16-08-2018 23:30:00 20.2 C 76 % 15.83 C
860 16-08-2018 23:35:00 20 C 76 % 15.64 C
861 16-08-2018 23:40:00 19.8 C 77 % 15.65 C
862 16-08-2018 23:45:00 19.7 C 78 % 15.76 C
863 16-08-2018 23:50:00 19.6 C 78 % 15.66 C
864 16-08-2018 23:55:00 19.4 C 78 % 15.47 C
865 17-08-2018 00:00:00 19.3 C 78 % 15.37 C
866 17-08-2018 00:05:00 19.3 C 79 % 15.57 C
867 17-08-2018 00:10:00 19.2 C 78 % 15.27 C
868 17-08-2018 00:15:00 19.2 C 79 % 15.47 C
869 17-08-2018 00:20:00 19.2 C 79 % 15.47 C
870 17-08-2018 00:25:00 19 C 79 % 15.28 C
871 17-08-2018 00:30:00 18.9 C 79 % 15.18 C
872 17-08-2018 00:35:00 18.7 C 80 % 15.18 C
873 17-08-2018 00:40:00 18.6 C 81 % 15.28 C
874 17-08-2018 00:45:00 18.4 C 81 % 15.08 C
875 17-08-2018 00:50:00 18.4 C 82 % 15.27 C
Sensor: Nr:Datum:Temp:Feuchte:Taupunkt:
Aussen-T/F 876 17-08-2018 00:55:00 18.2 C 82 % 15.08 C
877 17-08-2018 01:00:00 18.1 C 82 % 14.98 C
878 17-08-2018 01:05:00 17.9 C 82 % 14.78 C
879 17-08-2018 01:10:00 17.8 C 83 % 14.88 C
880 17-08-2018 01:15:00 17.8 C 83 % 14.88 C
881 17-08-2018 01:20:00 17.7 C 83 % 14.78 C
882 17-08-2018 01:25:00 17.7 C 84 % 14.96 C
883 17-08-2018 01:30:00 17.6 C 84 % 14.87 C
884 17-08-2018 01:35:00 17.6 C 84 % 14.87 C
885 17-08-2018 01:40:00 17.5 C 84 % 14.77 C
886 17-08-2018 01:45:00 17.4 C 84 % 14.67 C
887 17-08-2018 01:50:00 17.4 C 84 % 14.67 C
888 17-08-2018 01:55:00 17.3 C 85 % 14.76 C
889 17-08-2018 02:00:00 17.3 C 85 % 14.76 C
890 17-08-2018 02:05:00 17.3 C 85 % 14.76 C
891 17-08-2018 02:10:00 17.2 C 85 % 14.66 C
892 17-08-2018 02:15:00 17.2 C 85 % 14.66 C
893 17-08-2018 02:20:00 17.1 C 85 % 14.56 C
894 17-08-2018 02:25:00 17 C 85 % 14.46 C
895 17-08-2018 02:30:00 16.9 C 86 % 14.54 C
896 17-08-2018 02:35:00 16.8 C 86 % 14.45 C
897 17-08-2018 02:40:00 16.8 C 86 % 14.45 C
898 17-08-2018 02:45:00 16.7 C 86 % 14.35 C
899 17-08-2018 02:50:00 16.6 C 86 % 14.25 C
900 17-08-2018 02:55:00 16.6 C 86 % 14.25 C
Sensor: Nr:Datum:Temp:Feuchte:Taupunkt:
Aussen-T/F 901 17-08-2018 03:00:00 16.5 C 87 % 14.33 C
902 17-08-2018 03:05:00 16.5 C 87 % 14.33 C
903 17-08-2018 03:10:00 16.4 C 87 % 14.23 C
904 17-08-2018 03:15:00 16.3 C 87 % 14.13 C
905 17-08-2018 03:20:00 16.3 C 87 % 14.13 C
906 17-08-2018 03:25:00 16.2 C 87 % 14.03 C
907 17-08-2018 03:30:00 16.2 C 87 % 14.03 C
908 17-08-2018 03:35:00 16.2 C 88 % 14.21 C
909 17-08-2018 03:40:00 16.1 C 88 % 14.11 C
910 17-08-2018 03:45:00 16.1 C 88 % 14.11 C
911 17-08-2018 03:50:00 16.1 C 88 % 14.11 C
912 17-08-2018 03:55:00 16 C 88 % 14.01 C
913 17-08-2018 04:00:00 16 C 88 % 14.01 C
914 17-08-2018 04:05:00 16.1 C 88 % 14.11 C
915 17-08-2018 04:10:00 16 C 88 % 14.01 C
916 17-08-2018 04:15:00 15.9 C 88 % 13.92 C
917 17-08-2018 04:20:00 15.9 C 88 % 13.92 C
918 17-08-2018 04:25:00 15.9 C 88 % 13.92 C
919 17-08-2018 04:30:00 15.9 C 88 % 13.92 C
920 17-08-2018 04:35:00 15.8 C 88 % 13.82 C
921 17-08-2018 04:40:00 15.9 C 89 % 14.09 C
922 17-08-2018 04:45:00 15.9 C 89 % 14.09 C
923 17-08-2018 04:50:00 15.9 C 88 % 13.92 C
924 17-08-2018 04:55:00 15.9 C 88 % 13.92 C
925 17-08-2018 05:00:00 15.8 C 88 % 13.82 C
Sensor: Nr:Datum:Temp:Feuchte:Taupunkt:
Aussen-T/F 926 17-08-2018 05:05:00 15.8 C 89 % 13.99 C
927 17-08-2018 05:10:00 15.8 C 89 % 13.99 C
928 17-08-2018 05:15:00 15.8 C 89 % 13.99 C
929 17-08-2018 05:20:00 15.8 C 89 % 13.99 C
930 17-08-2018 05:25:00 15.8 C 89 % 13.99 C
931 17-08-2018 05:30:00 15.9 C 90 % 14.26 C
932 17-08-2018 05:35:00 16.1 C 90 % 14.46 C
933 17-08-2018 05:40:00 16.2 C 90 % 14.56 C
934 17-08-2018 05:45:00 16.3 C 89 % 14.48 C
935 17-08-2018 05:50:00 16.4 C 89 % 14.58 C
936 17-08-2018 05:55:00 16.6 C 89 % 14.78 C
937 17-08-2018 06:00:00 16.8 C 88 % 14.8 C
938 17-08-2018 06:05:00 16.9 C 87 % 14.72 C
939 17-08-2018 06:10:00 17 C 87 % 14.82 C
940 17-08-2018 06:15:00 17.1 C 87 % 14.92 C
941 17-08-2018 06:20:00 17.1 C 87 % 14.92 C
942 17-08-2018 06:25:00 17.1 C 86 % 14.74 C
943 17-08-2018 06:30:00 17.1 C 86 % 14.74 C
944 17-08-2018 06:35:00 17.1 C 86 % 14.74 C
945 17-08-2018 06:40:00 17.1 C 87 % 14.92 C
946 17-08-2018 06:45:00 17.1 C 87 % 14.92 C
947 17-08-2018 06:50:00 17.2 C 87 % 15.02 C
948 17-08-2018 06:55:00 17.3 C 86 % 14.94 C
949 17-08-2018 07:00:00 17.4 C 86 % 15.03 C
950 17-08-2018 07:05:00 17.4 C 86 % 15.03 C
Sensor: Nr:Datum:Temp:Feuchte:Taupunkt:
Aussen-T/F 951 17-08-2018 07:10:00 17.6 C 86 % 15.23 C
952 17-08-2018 07:15:00 17.6 C 86 % 15.23 C
953 17-08-2018 07:20:00 17.6 C 86 % 15.23 C
954 17-08-2018 07:25:00 17.6 C 86 % 15.23 C
955 17-08-2018 07:30:00 17.6 C 86 % 15.23 C
956 17-08-2018 07:35:00 17.7 C 86 % 15.33 C
957 17-08-2018 07:40:00 17.7 C 86 % 15.33 C
958 17-08-2018 07:45:00 17.8 C 86 % 15.43 C
959 17-08-2018 07:50:00 17.8 C 86 % 15.43 C
960 17-08-2018 07:55:00 17.8 C 86 % 15.43 C
961 17-08-2018 08:00:00 17.9 C 86 % 15.53 C
962 17-08-2018 08:05:00 17.9 C 86 % 15.53 C
963 17-08-2018 08:10:00 18 C 86 % 15.62 C
964 17-08-2018 08:15:00 18 C 85 % 15.44 C
965 17-08-2018 08:20:00 18.1 C 85 % 15.54 C
966 17-08-2018 08:25:00 18.1 C 85 % 15.54 C
967 17-08-2018 08:30:00 18.1 C 85 % 15.54 C
968 17-08-2018 08:35:00 18.1 C 85 % 15.54 C
969 17-08-2018 08:40:00 18.2 C 85 % 15.64 C
970 17-08-2018 08:45:00 18.3 C 84 % 15.55 C
971 17-08-2018 08:50:00 18.4 C 84 % 15.65 C
972 17-08-2018 08:55:00 18.6 C 84 % 15.84 C
973 17-08-2018 09:00:00 18.7 C 83 % 15.75 C
974 17-08-2018 09:05:00 18.8 C 83 % 15.85 C
975 17-08-2018 09:10:00 18.9 C 83 % 15.95 C
Sensor: Nr:Datum:Temp:Feuchte:Taupunkt:
Aussen-T/F 976 17-08-2018 09:15:00 19.1 C 82 % 15.96 C
977 17-08-2018 09:20:00 19.2 C 82 % 16.05 C
978 17-08-2018 09:25:00 19.2 C 82 % 16.05 C
979 17-08-2018 09:30:00 19.3 C 81 % 15.96 C
980 17-08-2018 09:35:00 19.3 C 81 % 15.96 C
981 17-08-2018 09:40:00 19.4 C 81 % 16.06 C
982 17-08-2018 09:45:00 19.4 C 80 % 15.86 C
983 17-08-2018 09:50:00 19.6 C 79 % 15.86 C
984 17-08-2018 09:55:00 19.7 C 79 % 15.96 C
985 17-08-2018 10:00:00 19.8 C 78 % 15.85 C
986 17-08-2018 10:05:00 20 C 78 % 16.05 C
987 17-08-2018 10:10:00 20.2 C 77 % 16.04 C
988 17-08-2018 10:15:00 20.2 C 77 % 16.04 C
989 17-08-2018 10:20:00 20.3 C 77 % 16.14 C
990 17-08-2018 10:25:00 20.3 C 77 % 16.14 C
991 17-08-2018 10:30:00 20.2 C 77 % 16.04 C
992 17-08-2018 10:35:00 20.2 C 77 % 16.04 C
993 17-08-2018 10:40:00 20.3 C 78 % 16.34 C
994 17-08-2018 10:45:00 20.6 C 76 % 16.22 C
995 17-08-2018 10:50:00 20.8 C 75 % 16.21 C
996 17-08-2018 10:55:00 21.1 C 74 % 16.29 C
997 17-08-2018 11:00:00 21.2 C 74 % 16.38 C
998 17-08-2018 11:05:00 21.3 C 73 % 16.26 C
999 17-08-2018 11:10:00 21.4 C 73 % 16.36 C
1000 17-08-2018 11:15:00 21.5 C 72 % 16.24 C
Sensor: Nr:Datum:Temp:Feuchte:Taupunkt:
Aussen-T/F 1001 17-08-2018 11:20:00 21.7 C 72 % 16.43 C
1002 17-08-2018 11:25:00 21.8 C 72 % 16.53 C
1003 17-08-2018 11:30:00 21.9 C 72 % 16.62 C
1004 17-08-2018 11:35:00 21.9 C 71 % 16.4 C
1005 17-08-2018 11:40:00 21.9 C 72 % 16.62 C
1006 17-08-2018 11:45:00 22.1 C 71 % 16.6 C
1007 17-08-2018 11:50:00 22.2 C 71 % 16.69 C
1008 17-08-2018 11:55:00 22.4 C 70 % 16.66 C
1009 17-08-2018 12:00:00 22.7 C 69 % 16.72 C
1010 17-08-2018 12:05:00 22.9 C 69 % 16.91 C
1011 17-08-2018 12:10:00 23.2 C 68 % 16.97 C
1012 17-08-2018 12:15:00 23.3 C 67 % 16.83 C
1013 17-08-2018 12:20:00 23.5 C 66 % 16.78 C
1014 17-08-2018 12:25:00 23.6 C 68 % 17.35 C
1015 17-08-2018 12:30:00 23.7 C 66 % 16.97 C
1016 17-08-2018 12:35:00 23.7 C 66 % 16.97 C
1017 17-08-2018 12:40:00 23.7 C 65 % 16.73 C
1018 17-08-2018 12:45:00 23.6 C 65 % 16.64 C
1019 17-08-2018 12:50:00 23.6 C 66 % 16.88 C
1020 17-08-2018 12:55:00 23.6 C 66 % 16.88 C
1021 17-08-2018 13:00:00 23.6 C 64 % 16.39 C
1022 17-08-2018 13:05:00 23.6 C 65 % 16.64 C
1023 17-08-2018 13:10:00 23.6 C 65 % 16.64 C
1024 17-08-2018 13:15:00 23.6 C 64 % 16.39 C
1025 17-08-2018 13:20:00 23.7 C 65 % 16.73 C
Sensor: Nr:Datum:Temp:Feuchte:Taupunkt:
Aussen-T/F 1026 17-08-2018 13:25:00 23.7 C 65 % 16.73 C
1027 17-08-2018 13:30:00 23.7 C 66 % 16.97 C
1028 17-08-2018 13:35:00 23.6 C 67 % 17.11 C
1029 17-08-2018 13:40:00 23.6 C 68 % 17.35 C
1030 17-08-2018 13:45:00 23.7 C 68 % 17.44 C
1031 17-08-2018 13:50:00 23.8 C 68 % 17.54 C
1032 17-08-2018 13:55:00 23.8 C 67 % 17.3 C
1033 17-08-2018 14:00:00 23.9 C 66 % 17.16 C
1034 17-08-2018 14:05:00 24.1 C 67 % 17.59 C
1035 17-08-2018 14:10:00 24.1 C 66 % 17.35 C
1036 17-08-2018 14:15:00 24.1 C 65 % 17.11 C
1037 17-08-2018 14:20:00 24.1 C 66 % 17.35 C
1038 17-08-2018 14:25:00 24.1 C 65 % 17.11 C
1039 17-08-2018 14:30:00 23.9 C 65 % 16.92 C
1040 17-08-2018 14:35:00 23.8 C 66 % 17.07 C
1041 17-08-2018 14:40:00 23.9 C 66 % 17.16 C
1042 17-08-2018 14:45:00 23.9 C 65 % 16.92 C
1043 17-08-2018 14:50:00 23.8 C 65 % 16.83 C
1044 17-08-2018 14:55:00 23.6 C 66 % 16.88 C
1045 17-08-2018 15:00:00 23.6 C 67 % 17.11 C
1046 17-08-2018 15:05:00 23.6 C 66 % 16.88 C
1047 17-08-2018 15:10:00 23.7 C 66 % 16.97 C
1048 17-08-2018 15:15:00 23.8 C 65 % 16.83 C
1049 17-08-2018 15:20:00 23.8 C 64 % 16.58 C
1050 17-08-2018 15:25:00 23.6 C 65 % 16.64 C
Sensor: Nr:Datum:Temp:Feuchte:Taupunkt:
Aussen-T/F 1051 17-08-2018 15:30:00 23.6 C 65 % 16.64 C
1052 17-08-2018 15:35:00 23.6 C 65 % 16.64 C
1053 17-08-2018 15:40:00 23.6 C 64 % 16.39 C
1054 17-08-2018 15:45:00 23.7 C 64 % 16.49 C
1055 17-08-2018 15:50:00 23.7 C 64 % 16.49 C
1056 17-08-2018 15:55:00 23.8 C 65 % 16.83 C
1057 17-08-2018 16:00:00 24.1 C 64 % 16.86 C
1058 17-08-2018 16:05:00 24.2 C 63 % 16.71 C
1059 17-08-2018 16:10:00 24.2 C 63 % 16.71 C
1060 17-08-2018 16:15:00 23.9 C 62 % 16.18 C
1061 17-08-2018 16:20:00 23.6 C 64 % 16.39 C
1062 17-08-2018 16:25:00 23.2 C 65 % 16.26 C
1063 17-08-2018 16:30:00 23.1 C 65 % 16.16 C
1064 17-08-2018 16:35:00 22.9 C 66 % 16.21 C
1065 17-08-2018 16:40:00 22.8 C 66 % 16.12 C
1066 17-08-2018 16:45:00 22.7 C 66 % 16.02 C
1067 17-08-2018 16:50:00 22.6 C 66 % 15.93 C
1068 17-08-2018 16:55:00 22.4 C 66 % 15.74 C
1069 17-08-2018 17:00:00 22.3 C 68 % 16.11 C
1070 17-08-2018 17:05:00 22.3 C 69 % 16.34 C
1071 17-08-2018 17:10:00 22.3 C 68 % 16.11 C
1072 17-08-2018 17:15:00 22.4 C 69 % 16.43 C
1073 17-08-2018 17:20:00 22.8 C 67 % 16.35 C
1074 17-08-2018 17:25:00 23.1 C 65 % 16.16 C
1075 17-08-2018 17:30:00 23.1 C 65 % 16.16 C
Sensor: Nr:Datum:Temp:Feuchte:Taupunkt:
Aussen-T/F 1076 17-08-2018 17:35:00 22.9 C 66 % 16.21 C
1077 17-08-2018 17:40:00 22.7 C 67 % 16.26 C
1078 17-08-2018 17:45:00 22.4 C 68 % 16.2 C
1079 17-08-2018 17:50:00 22.3 C 68 % 16.11 C
1080 17-08-2018 17:55:00 22.3 C 69 % 16.34 C
1081 17-08-2018 18:00:00 22.3 C 69 % 16.34 C
1082 17-08-2018 18:05:00 22.4 C 69 % 16.43 C
1083 17-08-2018 18:10:00 22.4 C 69 % 16.43 C
1084 17-08-2018 18:15:00 22.4 C 68 % 16.2 C
1085 17-08-2018 18:20:00 22.4 C 68 % 16.2 C
1086 17-08-2018 18:25:00 22.4 C 69 % 16.43 C
1087 17-08-2018 18:30:00 22.4 C 68 % 16.2 C
1088 17-08-2018 18:35:00 22.2 C 68 % 16.01 C
1089 17-08-2018 18:40:00 21.9 C 69 % 15.96 C
1090 17-08-2018 18:45:00 21.7 C 69 % 15.77 C
1091 17-08-2018 18:50:00 21.7 C 70 % 15.99 C
1092 17-08-2018 18:55:00 21.7 C 70 % 15.99 C
1093 17-08-2018 19:00:00 21.7 C 70 % 15.99 C
1094 17-08-2018 19:05:00 21.7 C 69 % 15.77 C
1095 17-08-2018 19:10:00 21.7 C 69 % 15.77 C
1096 17-08-2018 19:15:00 21.7 C 69 % 15.77 C
1097 17-08-2018 19:20:00 21.6 C 69 % 15.67 C
1098 17-08-2018 19:25:00 21.6 C 69 % 15.67 C
1099 17-08-2018 19:30:00 21.6 C 69 % 15.67 C
1100 17-08-2018 19:35:00 21.7 C 68 % 15.54 C
Sensor: Nr:Datum:Temp:Feuchte:Taupunkt:
Aussen-T/F 1101 17-08-2018 19:40:00 21.7 C 68 % 15.54 C
1102 17-08-2018 19:45:00 21.7 C 68 % 15.54 C
1103 17-08-2018 19:50:00 21.7 C 68 % 15.54 C
1104 17-08-2018 19:55:00 21.7 C 68 % 15.54 C
1105 17-08-2018 20:00:00 21.7 C 68 % 15.54 C
1106 17-08-2018 20:05:00 21.6 C 68 % 15.44 C
1107 17-08-2018 20:10:00 21.4 C 69 % 15.48 C
1108 17-08-2018 20:15:00 21.3 C 69 % 15.38 C
1109 17-08-2018 20:20:00 21.2 C 68 % 15.06 C
1110 17-08-2018 20:25:00 21.2 C 69 % 15.29 C
1111 17-08-2018 20:30:00 21.1 C 68 % 14.97 C
1112 17-08-2018 20:35:00 20.9 C 67 % 14.55 C
1113 17-08-2018 20:40:00 20.8 C 68 % 14.68 C
1114 17-08-2018 20:45:00 20.6 C 70 % 14.94 C
1115 17-08-2018 20:50:00 20.4 C 70 % 14.75 C
1116 17-08-2018 20:55:00 20.2 C 70 % 14.56 C
1117 17-08-2018 21:00:00 20 C 72 % 14.8 C
1118 17-08-2018 21:05:00 19.7 C 73 % 14.73 C
1119 17-08-2018 21:10:00 19.4 C 74 % 14.65 C
1120 17-08-2018 21:15:00 19.1 C 75 % 14.57 C
1121 17-08-2018 21:20:00 18.9 C 76 % 14.58 C
1122 17-08-2018 21:25:00 18.7 C 77 % 14.59 C
1123 17-08-2018 21:30:00 18.6 C 77 % 14.49 C
1124 17-08-2018 21:35:00 18.4 C 78 % 14.5 C
1125 17-08-2018 21:40:00 18.3 C 78 % 14.4 C
Sensor: Nr:Datum:Temp:Feuchte:Taupunkt:
Aussen-T/F 1126 17-08-2018 21:45:00 18.2 C 78 % 14.3 C
1127 17-08-2018 21:50:00 18.1 C 79 % 14.4 C
1128 17-08-2018 21:55:00 17.9 C 79 % 14.21 C
1129 17-08-2018 22:00:00 17.9 C 79 % 14.21 C
1130 17-08-2018 22:05:00 17.8 C 79 % 14.11 C
1131 17-08-2018 22:10:00 17.7 C 79 % 14.01 C
1132 17-08-2018 22:15:00 17.7 C 80 % 14.21 C
1133 17-08-2018 22:20:00 17.6 C 80 % 14.11 C
1134 17-08-2018 22:25:00 17.5 C 80 % 14.01 C
1135 17-08-2018 22:30:00 17.4 C 80 % 13.92 C
1136 17-08-2018 22:35:00 17.4 C 80 % 13.92 C
1137 17-08-2018 22:40:00 17.3 C 80 % 13.82 C
1138 17-08-2018 22:45:00 17.3 C 80 % 13.82 C
1139 17-08-2018 22:50:00 17.2 C 80 % 13.72 C
1140 17-08-2018 22:55:00 17.1 C 80 % 13.62 C
1141 17-08-2018 23:00:00 17.1 C 80 % 13.62 C
1142 17-08-2018 23:05:00 17 C 80 % 13.53 C
1143 17-08-2018 23:10:00 16.9 C 80 % 13.43 C
1144 17-08-2018 23:15:00 16.9 C 80 % 13.43 C
1145 17-08-2018 23:20:00 16.8 C 80 % 13.33 C
1146 17-08-2018 23:25:00 16.7 C 81 % 13.43 C
1147 17-08-2018 23:30:00 16.7 C 81 % 13.43 C
1148 17-08-2018 23:35:00 16.5 C 81 % 13.23 C
1149 17-08-2018 23:40:00 16.4 C 82 % 13.32 C
1150 17-08-2018 23:45:00 16.3 C 82 % 13.22 C
Sensor: Nr:Datum:Temp:Feuchte:Taupunkt:
Aussen-T/F 1151 17-08-2018 23:50:00 16.3 C 82 % 13.22 C
1152 17-08-2018 23:55:00 16.2 C 82 % 13.13 C
1153 18-08-2018 00:00:00 16.2 C 82 % 13.13 C
1154 18-08-2018 00:05:00 16.1 C 82 % 13.03 C
1155 18-08-2018 00:10:00 16.1 C 83 % 13.21 C
1156 18-08-2018 00:15:00 16 C 83 % 13.12 C
1157 18-08-2018 00:20:00 15.9 C 83 % 13.02 C
1158 18-08-2018 00:25:00 15.8 C 83 % 12.92 C
1159 18-08-2018 00:30:00 15.7 C 83 % 12.82 C
1160 18-08-2018 00:35:00 15.6 C 83 % 12.72 C
1161 18-08-2018 00:40:00 15.5 C 84 % 12.81 C
1162 18-08-2018 00:45:00 15.4 C 84 % 12.71 C
1163 18-08-2018 00:50:00 15.3 C 84 % 12.61 C
1164 18-08-2018 00:55:00 15.3 C 84 % 12.61 C
1165 18-08-2018 01:00:00 15.2 C 85 % 12.7 C
1166 18-08-2018 01:05:00 15.1 C 85 % 12.6 C
1167 18-08-2018 01:10:00 15 C 85 % 12.5 C
1168 18-08-2018 01:15:00 14.9 C 86 % 12.58 C
1169 18-08-2018 01:20:00 14.8 C 86 % 12.48 C
1170 18-08-2018 01:25:00 14.7 C 86 % 12.38 C
1171 18-08-2018 01:30:00 14.7 C 86 % 12.38 C
1172 18-08-2018 01:35:00 14.7 C 87 % 12.56 C
1173 18-08-2018 01:40:00 14.7 C 87 % 12.56 C
1174 18-08-2018 01:45:00 14.7 C 87 % 12.56 C
1175 18-08-2018 01:50:00 14.6 C 87 % 12.46 C
Sensor: Nr:Datum:Temp:Feuchte:Taupunkt:
Aussen-T/F 1176 18-08-2018 01:55:00 14.6 C 87 % 12.46 C
1177 18-08-2018 02:00:00 14.4 C 87 % 12.27 C
1178 18-08-2018 02:05:00 14.3 C 87 % 12.17 C
1179 18-08-2018 02:10:00 14.3 C 87 % 12.17 C
1180 18-08-2018 02:15:00 14.2 C 87 % 12.07 C
1181 18-08-2018 02:20:00 14.2 C 87 % 12.07 C
1182 18-08-2018 02:25:00 14.1 C 88 % 12.14 C
1183 18-08-2018 02:30:00 14.1 C 88 % 12.14 C
1184 18-08-2018 02:35:00 14.1 C 88 % 12.14 C
1185 18-08-2018 02:40:00 14 C 88 % 12.05 C
1186 18-08-2018 02:45:00 14 C 88 % 12.05 C
1187 18-08-2018 02:50:00 13.9 C 88 % 11.95 C
1188 18-08-2018 02:55:00 13.9 C 88 % 11.95 C
1189 18-08-2018 03:00:00 13.8 C 88 % 11.85 C
1190 18-08-2018 03:05:00 13.8 C 89 % 12.02 C
1191 18-08-2018 03:10:00 13.7 C 89 % 11.92 C
1192 18-08-2018 03:15:00 13.7 C 88 % 11.75 C
1193 18-08-2018 03:20:00 13.6 C 89 % 11.82 C
1194 18-08-2018 03:25:00 13.5 C 89 % 11.72 C
1195 18-08-2018 03:30:00 13.5 C 89 % 11.72 C
1196 18-08-2018 03:35:00 13.4 C 89 % 11.63 C
1197 18-08-2018 03:40:00 13.4 C 89 % 11.63 C
1198 18-08-2018 03:45:00 13.2 C 89 % 11.43 C
1199 18-08-2018 03:50:00 13.2 C 89 % 11.43 C
1200 18-08-2018 03:55:00 13.2 C 90 % 11.6 C
Sensor: Nr:Datum:Temp:Feuchte:Taupunkt:
Aussen-T/F 1201 18-08-2018 04:00:00 13.1 C 90 % 11.5 C
1202 18-08-2018 04:05:00 13.1 C 89 % 11.33 C
1203 18-08-2018 04:10:00 13 C 90 % 11.4 C
1204 18-08-2018 04:15:00 12.9 C 90 % 11.3 C
1205 18-08-2018 04:20:00 12.9 C 90 % 11.3 C
1206 18-08-2018 04:25:00 12.8 C 90 % 11.2 C
1207 18-08-2018 04:30:00 12.8 C 90 % 11.2 C
1208 18-08-2018 04:35:00 12.8 C 90 % 11.2 C
1209 18-08-2018 04:40:00 12.8 C 91 % 11.37 C
1210 18-08-2018 04:45:00 12.8 C 90 % 11.2 C
1211 18-08-2018 04:50:00 12.7 C 90 % 11.1 C
1212 18-08-2018 04:55:00 12.7 C 91 % 11.27 C
1213 18-08-2018 05:00:00 12.7 C 91 % 11.27 C
1214 18-08-2018 05:05:00 12.6 C 91 % 11.17 C
1215 18-08-2018 05:10:00 12.6 C 91 % 11.17 C
1216 18-08-2018 05:15:00 12.5 C 91 % 11.07 C
1217 18-08-2018 05:20:00 12.5 C 91 % 11.07 C
1218 18-08-2018 05:25:00 12.5 C 91 % 11.07 C
1219 18-08-2018 05:30:00 12.6 C 91 % 11.17 C
1220 18-08-2018 05:35:00 12.5 C 91 % 11.07 C
1221 18-08-2018 05:40:00 12.4 C 91 % 10.97 C
1222 18-08-2018 05:45:00 12.4 C 91 % 10.97 C
1223 18-08-2018 05:50:00 12.4 C 92 % 11.14 C
1224 18-08-2018 05:55:00 12.4 C 92 % 11.14 C
1225 18-08-2018 06:00:00 12.3 C 91 % 10.87 C
Sensor: Nr:Datum:Temp:Feuchte:Taupunkt:
Aussen-T/F 1226 18-08-2018 06:05:00 12.3 C 91 % 10.87 C
1227 18-08-2018 06:10:00 12.2 C 91 % 10.78 C
1228 18-08-2018 06:15:00 12.2 C 91 % 10.78 C
1229 18-08-2018 06:20:00 12.1 C 91 % 10.68 C
1230 18-08-2018 06:25:00 12 C 92 % 10.74 C
1231 18-08-2018 06:30:00 11.9 C 92 % 10.64 C
1232 18-08-2018 06:35:00 11.9 C 92 % 10.64 C
1233 18-08-2018 06:40:00 11.9 C 92 % 10.64 C
1234 18-08-2018 06:45:00 11.9 C 92 % 10.64 C
1235 18-08-2018 06:50:00 11.8 C 92 % 10.54 C
1236 18-08-2018 06:55:00 11.8 C 92 % 10.54 C
1237 18-08-2018 07:00:00 11.9 C 92 % 10.64 C
1238 18-08-2018 07:05:00 11.9 C 92 % 10.64 C
1239 18-08-2018 07:10:00 11.9 C 92 % 10.64 C
1240 18-08-2018 07:15:00 11.9 C 92 % 10.64 C
1241 18-08-2018 07:20:00 11.9 C 92 % 10.64 C
1242 18-08-2018 07:25:00 12 C 92 % 10.74 C
1243 18-08-2018 07:30:00 12.1 C 93 % 11 C
1244 18-08-2018 07:35:00 12.1 C 93 % 11 C
1245 18-08-2018 07:40:00 12.1 C 93 % 11 C
1246 18-08-2018 07:45:00 12.2 C 93 % 11.1 C
1247 18-08-2018 07:50:00 12.2 C 93 % 11.1 C
1248 18-08-2018 07:55:00 12.2 C 93 % 11.1 C
1249 18-08-2018 08:00:00 12.3 C 93 % 11.2 C
1250 18-08-2018 08:05:00 12.3 C 93 % 11.2 C
Sensor: Nr:Datum:Temp:Feuchte:Taupunkt:
Aussen-T/F 1251 18-08-2018 08:10:00 12.3 C 93 % 11.2 C
1252 18-08-2018 08:15:00 12.3 C 93 % 11.2 C
1253 18-08-2018 08:20:00 12.4 C 93 % 11.3 C
1254 18-08-2018 08:25:00 12.4 C 93 % 11.3 C
1255 18-08-2018 08:30:00 12.5 C 93 % 11.4 C
1256 18-08-2018 08:35:00 12.6 C 93 % 11.5 C
1257 18-08-2018 08:40:00 12.6 C 93 % 11.5 C
1258 18-08-2018 08:45:00 12.7 C 93 % 11.6 C
1259 18-08-2018 08:50:00 12.7 C 93 % 11.6 C
1260 18-08-2018 08:55:00 12.8 C 93 % 11.7 C
1261 18-08-2018 09:00:00 12.9 C 93 % 11.8 C
1262 18-08-2018 09:05:00 13.1 C 93 % 11.99 C
1263 18-08-2018 09:10:00 13.2 C 93 % 12.09 C
1264 18-08-2018 09:15:00 13.3 C 93 % 12.19 C
1265 18-08-2018 09:20:00 13.4 C 93 % 12.29 C
1266 18-08-2018 09:25:00 13.5 C 93 % 12.39 C
1267 18-08-2018 09:30:00 13.7 C 93 % 12.59 C
1268 18-08-2018 09:35:00 13.8 C 93 % 12.69 C
1269 18-08-2018 09:40:00 13.9 C 93 % 12.79 C
1270 18-08-2018 09:45:00 14.1 C 93 % 12.99 C
1271 18-08-2018 09:50:00 14.2 C 93 % 13.08 C
1272 18-08-2018 09:55:00 14.3 C 93 % 13.18 C
1273 18-08-2018 10:00:00 14.4 C 92 % 13.12 C
1274 18-08-2018 10:05:00 14.6 C 92 % 13.32 C
1275 18-08-2018 10:10:00 14.8 C 91 % 13.35 C
Sensor: Nr:Datum:Temp:Feuchte:Taupunkt:
Aussen-T/F 1276 18-08-2018 10:15:00 15 C 91 % 13.54 C
1277 18-08-2018 10:20:00 15.2 C 91 % 13.74 C
1278 18-08-2018 10:25:00 15.4 C 90 % 13.77 C
1279 18-08-2018 10:30:00 15.6 C 89 % 13.79 C
1280 18-08-2018 10:35:00 15.9 C 87 % 13.74 C
1281 18-08-2018 10:40:00 16.3 C 86 % 13.95 C
1282 18-08-2018 10:45:00 16.6 C 84 % 13.89 C
1283 18-08-2018 10:50:00 16.9 C 83 % 14 C
1284 18-08-2018 10:55:00 17.2 C 82 % 14.1 C
1285 18-08-2018 11:00:00 17.4 C 81 % 14.11 C
1286 18-08-2018 11:05:00 17.7 C 80 % 14.21 C
1287 18-08-2018 11:10:00 17.9 C 79 % 14.21 C
1288 18-08-2018 11:15:00 18.1 C 77 % 14.01 C
1289 18-08-2018 11:20:00 18.4 C 77 % 14.3 C
1290 18-08-2018 11:25:00 18.6 C 76 % 14.29 C
1291 18-08-2018 11:30:00 18.8 C 73 % 13.86 C
1292 18-08-2018 11:35:00 19.1 C 72 % 13.94 C
1293 18-08-2018 11:40:00 19.2 C 72 % 14.03 C
1294 18-08-2018 11:45:00 19.5 C 70 % 13.89 C
1295 18-08-2018 11:50:00 19.7 C 65 % 12.94 C
1296 18-08-2018 11:55:00 20 C 64 % 12.99 C
1297 18-08-2018 12:00:00 20.2 C 64 % 13.18 C
1298 18-08-2018 12:05:00 20.4 C 62 % 12.88 C
1299 18-08-2018 12:10:00 20.7 C 59 % 12.41 C
1300 18-08-2018 12:15:00 20.8 C 58 % 12.24 C
Sensor: Nr:Datum:Temp:Feuchte:Taupunkt:
Aussen-T/F 1301 18-08-2018 12:20:00 20.9 C 59 % 12.59 C
1302 18-08-2018 12:25:00 21.2 C 60 % 13.13 C
1303 18-08-2018 12:30:00 21.3 C 60 % 13.22 C
1304 18-08-2018 12:35:00 21.3 C 60 % 13.22 C
1305 18-08-2018 12:40:00 21.4 C 58 % 12.8 C
1306 18-08-2018 12:45:00 21.4 C 59 % 13.06 C
1307 18-08-2018 12:50:00 21.5 C 57 % 12.63 C
1308 18-08-2018 12:55:00 21.6 C 58 % 12.99 C
1309 18-08-2018 13:00:00 21.7 C 59 % 13.34 C
1310 18-08-2018 13:05:00 21.8 C 59 % 13.44 C
1311 18-08-2018 13:10:00 21.8 C 54 % 12.08 C
1312 18-08-2018 13:15:00 21.9 C 53 % 11.89 C
1313 18-08-2018 13:20:00 21.9 C 54 % 12.18 C
1314 18-08-2018 13:25:00 22 C 53 % 11.99 C
1315 18-08-2018 13:30:00 22.3 C 51 % 11.68 C
1316 18-08-2018 13:35:00 22.5 C 53 % 12.45 C
1317 18-08-2018 13:40:00 22.7 C 52 % 12.34 C
1318 18-08-2018 13:45:00 22.8 C 51 % 12.14 C
1319 18-08-2018 13:50:00 22.8 C 50 % 11.84 C
1320 18-08-2018 13:55:00 22.9 C 50 % 11.93 C
1321 18-08-2018 14:00:00 23.1 C 50 % 12.11 C
1322 18-08-2018 14:05:00 23.1 C 49 % 11.81 C
1323 18-08-2018 14:10:00 23.3 C 48 % 11.68 C
1324 18-08-2018 14:15:00 23.4 C 48 % 11.77 C
1325 18-08-2018 14:20:00 23.6 C 47 % 11.63 C
Sensor: Nr:Datum:Temp:Feuchte:Taupunkt:
Aussen-T/F 1326 18-08-2018 14:25:00 23.6 C 46 % 11.31 C
1327 18-08-2018 14:30:00 23.7 C 45 % 11.07 C
1328 18-08-2018 14:35:00 23.8 C 46 % 11.49 C
1329 18-08-2018 14:40:00 23.8 C 47 % 11.82 C
1330 18-08-2018 14:45:00 23.9 C 45 % 11.25 C
1331 18-08-2018 14:50:00 24 C 45 % 11.34 C
1332 18-08-2018 14:55:00 24.2 C 45 % 11.52 C
1333 18-08-2018 15:00:00 24.3 C 44 % 11.27 C
1334 18-08-2018 15:05:00 24.4 C 45 % 11.7 C
1335 18-08-2018 15:10:00 24.5 C 44 % 11.45 C
1336 18-08-2018 15:15:00 24.7 C 44 % 11.63 C
1337 18-08-2018 15:20:00 24.9 C 43 % 11.47 C
1338 18-08-2018 15:25:00 25.1 C 43 % 11.65 C
1339 18-08-2018 15:30:00 25.2 C 42 % 11.38 C
1340 18-08-2018 15:35:00 25.3 C 41 % 11.11 C
1341 18-08-2018 15:40:00 25.3 C 45 % 12.52 C
1342 18-08-2018 15:45:00 25.4 C 42 % 11.56 C
1343 18-08-2018 15:50:00 25.4 C 41 % 11.2 C
1344 18-08-2018 15:55:00 25.6 C 41 % 11.38 C
1345 18-08-2018 16:00:00 26 C 41 % 11.73 C
1346 18-08-2018 16:05:00 26.3 C 39 % 11.25 C
1347 18-08-2018 16:10:00 26.4 C 41 % 12.09 C
1348 18-08-2018 16:15:00 26.8 C 41 % 12.45 C
1349 18-08-2018 16:20:00 27.2 C 39 % 12.05 C
1350 18-08-2018 16:25:00 27.4 C 36 % 11.01 C
Sensor: Nr:Datum:Temp:Feuchte:Taupunkt:
Aussen-T/F 1351 18-08-2018 16:30:00 27.6 C 39 % 12.4 C
1352 18-08-2018 16:35:00 27.8 C 37 % 11.78 C
1353 18-08-2018 16:40:00 27.8 C 37 % 11.78 C
1354 18-08-2018 16:45:00 27.7 C 37 % 11.69 C
1355 18-08-2018 16:50:00 27.3 C 36 % 10.93 C
1356 18-08-2018 16:55:00 27.3 C 36 % 10.93 C
1357 18-08-2018 17:00:00 27.4 C 37 % 11.43 C
1358 18-08-2018 17:05:00 27.6 C 38 % 12.01 C
1359 18-08-2018 17:10:00 27.7 C 37 % 11.69 C
1360 18-08-2018 17:15:00 27.6 C 37 % 11.6 C
1361 18-08-2018 17:20:00 27.6 C 36 % 11.19 C
1362 18-08-2018 17:25:00 27.6 C 36 % 11.19 C
1363 18-08-2018 17:30:00 27.6 C 36 % 11.19 C
1364 18-08-2018 17:35:00 27.7 C 36 % 11.28 C
1365 18-08-2018 17:40:00 27.8 C 35 % 10.94 C
1366 18-08-2018 17:45:00 28.1 C 35 % 11.2 C
1367 18-08-2018 17:50:00 28.1 C 35 % 11.2 C
1368 18-08-2018 17:55:00 28.2 C 34 % 10.86 C
1369 18-08-2018 18:00:00 28.1 C 34 % 10.77 C
1370 18-08-2018 18:05:00 28.2 C 35 % 11.29 C
1371 18-08-2018 18:10:00 28.2 C 35 % 11.29 C
1372 18-08-2018 18:15:00 28.2 C 36 % 11.72 C
1373 18-08-2018 18:20:00 28.2 C 35 % 11.29 C
1374 18-08-2018 18:25:00 28.2 C 35 % 11.29 C
1375 18-08-2018 18:30:00 28.2 C 35 % 11.29 C
Sensor: Nr:Datum:Temp:Feuchte:Taupunkt:
Aussen-T/F 1376 18-08-2018 18:35:00 28.2 C 35 % 11.29 C
1377 18-08-2018 18:40:00 28.1 C 35 % 11.2 C
1378 18-08-2018 18:45:00 28.3 C 34 % 10.94 C
1379 18-08-2018 18:50:00 28.4 C 34 % 11.03 C
1380 18-08-2018 18:55:00 28.5 C 33 % 10.67 C
1381 18-08-2018 19:00:00 28.6 C 33 % 10.76 C
1382 18-08-2018 19:05:00 28.6 C 33 % 10.76 C
1383 18-08-2018 19:10:00 28.4 C 33 % 10.58 C
1384 18-08-2018 19:15:00 28.3 C 33 % 10.49 C
1385 18-08-2018 19:20:00 27.9 C 36 % 11.45 C
1386 18-08-2018 19:25:00 27.5 C 35 % 10.68 C
1387 18-08-2018 19:30:00 27.3 C 37 % 11.34 C
1388 18-08-2018 19:35:00 27.1 C 39 % 11.96 C
1389 18-08-2018 19:40:00 26.8 C 43 % 13.18 C
1390 18-08-2018 19:45:00 26.4 C 45 % 13.51 C
1391 18-08-2018 19:50:00 25.8 C 46 % 13.31 C
1392 18-08-2018 19:55:00 25.2 C 48 % 13.41 C
1393 18-08-2018 20:00:00 24.9 C 43 % 11.47 C
1394 18-08-2018 20:05:00 24.9 C 42 % 11.11 C
1395 18-08-2018 20:10:00 25.1 C 43 % 11.65 C
1396 18-08-2018 20:15:00 25.2 C 44 % 12.09 C
1397 18-08-2018 20:20:00 25.1 C 43 % 11.65 C
1398 18-08-2018 20:25:00 24.8 C 44 % 11.72 C
1399 18-08-2018 20:30:00 24.7 C 48 % 12.96 C
1400 18-08-2018 20:35:00 24.4 C 50 % 13.31 C
Sensor: Nr:Datum:Temp:Feuchte:Taupunkt:
Aussen-T/F 1401 18-08-2018 20:40:00 23.8 C 49 % 12.45 C
1402 18-08-2018 20:45:00 23.3 C 49 % 11.99 C
1403 18-08-2018 20:50:00 22.9 C 54 % 13.1 C
1404 18-08-2018 20:55:00 22.5 C 54 % 12.73 C
1405 18-08-2018 21:00:00 22.1 C 54 % 12.36 C
1406 18-08-2018 21:05:00 21.8 C 55 % 12.36 C
1407 18-08-2018 21:10:00 21.6 C 56 % 12.45 C
1408 18-08-2018 21:15:00 21.4 C 56 % 12.27 C
1409 18-08-2018 21:20:00 21.3 C 58 % 12.71 C
1410 18-08-2018 21:25:00 21.2 C 59 % 12.87 C
1411 18-08-2018 21:30:00 20.9 C 59 % 12.59 C
1412 18-08-2018 21:35:00 20.7 C 60 % 12.66 C
1413 18-08-2018 21:40:00 20.5 C 61 % 12.73 C
1414 18-08-2018 21:45:00 20.2 C 62 % 12.69 C
1415 18-08-2018 21:50:00 20.1 C 63 % 12.84 C
1416 18-08-2018 21:55:00 19.9 C 62 % 12.41 C
1417 18-08-2018 22:00:00 19.8 C 63 % 12.56 C
1418 18-08-2018 22:05:00 19.7 C 64 % 12.7 C
1419 18-08-2018 22:10:00 19.6 C 65 % 12.84 C
1420 18-08-2018 22:15:00 19.6 C 65 % 12.84 C
1421 18-08-2018 22:20:00 19.5 C 64 % 12.51 C
1422 18-08-2018 22:25:00 19.4 C 66 % 12.89 C
1423 18-08-2018 22:30:00 19.3 C 66 % 12.79 C
1424 18-08-2018 22:35:00 19.2 C 66 % 12.7 C
1425 18-08-2018 22:40:00 19.1 C 67 % 12.83 C
Sensor: Nr:Datum:Temp:Feuchte:Taupunkt:
Aussen-T/F 1426 18-08-2018 22:45:00 19 C 67 % 12.74 C
1427 18-08-2018 22:50:00 18.9 C 67 % 12.64 C
1428 18-08-2018 22:55:00 18.8 C 67 % 12.55 C
1429 18-08-2018 23:00:00 18.7 C 68 % 12.68 C
1430 18-08-2018 23:05:00 18.7 C 68 % 12.68 C
1431 18-08-2018 23:10:00 18.6 C 68 % 12.58 C
1432 18-08-2018 23:15:00 18.4 C 69 % 12.61 C
1433 18-08-2018 23:20:00 18.4 C 69 % 12.61 C
1434 18-08-2018 23:25:00 18.3 C 69 % 12.52 C
1435 18-08-2018 23:30:00 18.2 C 69 % 12.42 C
1436 18-08-2018 23:35:00 18.2 C 70 % 12.64 C
1437 18-08-2018 23:40:00 18.1 C 70 % 12.55 C
1438 18-08-2018 23:45:00 17.9 C 71 % 12.57 C
1439 18-08-2018 23:50:00 17.8 C 71 % 12.47 C
1440 18-08-2018 23:55:00 17.6 C 71 % 12.28 C

Legende:
   Min
   Max


Maximal/Minimal-Werte vom 14.08.2018 - 18.08.2018

Sensor Min Max Avg
Temp
(Aussen-T/F)
11.8 °C
18-08-2018  06:50:00
32.9 °C
16-08-2018  18:45:00
19.46 °C
Feuchte
(Aussen-T/F)
32 %
16-08-2018  18:30:00
95 %
16-08-2018  09:50:00
76.11 %
Taupunkt
(Aussen-T/F)
10.49 C
18-08-2018  19:15:00
17.92 C
16-08-2018  19:10:00
14.59 C

Die Daten stammen von einer Davis Vantage Pro 2 Wetter-Station und werden unter Linux mit der Software wview2wettercgi und aufbereitet. Alle Angaben erfolgen ohne Gewähr für ihre Vollständigkeit oder Richtigkeit.
Kontakt: Rainer Krienke krienke@uni-koblenz.de . Meine Webseiten an der Uni Koblenz oder privat.
Version: $Revision: 0.78 $